<?xml version="1.0" encoding="UTF-8" standalone="no" ?>
<gpx xmlns="http://www.topografix.com/GPX/1/1" xmlns:xsi="http://www.w3.org/2001/XMLSchema-instance" xsi:schemaLocation="http://www.topografix.com/GPX/1/1 http://www.topografix.com/GPX/1/1/gpx.xsd" version="1.1" creator="VisuGPX - https://www.visugpx.com">
  <metadata>
    <name>Randonnée raquettes col du Calvaire.</name>
    <desc><![CDATA[Départ col du Calvaire-crêtes au dessus du lac Blanc-Gazon du Faing.]]></desc>
  </metadata>
  <trk>
    <name><![CDATA[Randonnée raquettes col du Calvaire._1]]></name>
    <trkseg>
      <trkpt lat="48.13673" lon="7.08881">
        <ele>1147</ele>
        <time>2018-02-13T09:28:18+01:00</time>
      </trkpt>
      <trkpt lat="48.13673" lon="7.08879">
        <ele>1147</ele>
        <time>2018-02-13T09:28:46+01:00</time>
      </trkpt>
      <trkpt lat="48.13678" lon="7.08877">
        <ele>1147</ele>
        <time>2018-02-13T09:29:09+01:00</time>
      </trkpt>
      <trkpt lat="48.13679" lon="7.08878">
        <ele>1147</ele>
        <time>2018-02-13T09:29:10+01:00</time>
      </trkpt>
      <trkpt lat="48.13679" lon="7.08877">
        <ele>1147</ele>
        <time>2018-02-13T09:29:11+01:00</time>
      </trkpt>
      <trkpt lat="48.13679" lon="7.08877">
        <ele>1147</ele>
        <time>2018-02-13T09:29:12+01:00</time>
      </trkpt>
      <trkpt lat="48.13679" lon="7.08877">
        <ele>1147</ele>
        <time>2018-02-13T09:29:13+01:00</time>
      </trkpt>
      <trkpt lat="48.13687" lon="7.08862">
        <ele>1146</ele>
        <time>2018-02-13T09:29:34+01:00</time>
      </trkpt>
      <trkpt lat="48.13686" lon="7.08854">
        <ele>1146</ele>
        <time>2018-02-13T09:29:54+01:00</time>
      </trkpt>
      <trkpt lat="48.13683" lon="7.08852">
        <ele>1146</ele>
        <time>2018-02-13T09:30:13+01:00</time>
      </trkpt>
      <trkpt lat="48.13675" lon="7.0885">
        <ele>1147</ele>
        <time>2018-02-13T09:30:20+01:00</time>
      </trkpt>
      <trkpt lat="48.13671" lon="7.0885">
        <ele>1147</ele>
        <time>2018-02-13T09:30:37+01:00</time>
      </trkpt>
      <trkpt lat="48.13669" lon="7.0885">
        <ele>1147</ele>
        <time>2018-02-13T09:31:04+01:00</time>
      </trkpt>
      <trkpt lat="48.13668" lon="7.0885">
        <ele>1147</ele>
        <time>2018-02-13T09:31:32+01:00</time>
      </trkpt>
      <trkpt lat="48.13668" lon="7.08848">
        <ele>1147</ele>
        <time>2018-02-13T09:31:47+01:00</time>
      </trkpt>
      <trkpt lat="48.13673" lon="7.08847">
        <ele>1147</ele>
        <time>2018-02-13T09:31:54+01:00</time>
      </trkpt>
      <trkpt lat="48.1368" lon="7.08851">
        <ele>1146</ele>
        <time>2018-02-13T09:32:01+01:00</time>
      </trkpt>
      <trkpt lat="48.13685" lon="7.08872">
        <ele>1147</ele>
        <time>2018-02-13T09:32:14+01:00</time>
      </trkpt>
      <trkpt lat="48.13676" lon="7.08878">
        <ele>1147</ele>
        <time>2018-02-13T09:32:28+01:00</time>
      </trkpt>
      <trkpt lat="48.13674" lon="7.08879">
        <ele>1147</ele>
        <time>2018-02-13T09:32:48+01:00</time>
      </trkpt>
      <trkpt lat="48.13673" lon="7.08877">
        <ele>1147</ele>
        <time>2018-02-13T09:33:08+01:00</time>
      </trkpt>
      <trkpt lat="48.13673" lon="7.08878">
        <ele>1147</ele>
        <time>2018-02-13T09:33:25+01:00</time>
      </trkpt>
      <trkpt lat="48.13674" lon="7.08877">
        <ele>1147</ele>
        <time>2018-02-13T09:33:51+01:00</time>
      </trkpt>
      <trkpt lat="48.13674" lon="7.08877">
        <ele>1147</ele>
        <time>2018-02-13T09:33:57+01:00</time>
      </trkpt>
      <trkpt lat="48.13675" lon="7.08878">
        <ele>1147</ele>
        <time>2018-02-13T09:33:59+01:00</time>
      </trkpt>
      <trkpt lat="48.13675" lon="7.08878">
        <ele>1147</ele>
        <time>2018-02-13T09:34:00+01:00</time>
      </trkpt>
      <trkpt lat="48.13681" lon="7.08878">
        <ele>1147</ele>
        <time>2018-02-13T09:34:09+01:00</time>
      </trkpt>
      <trkpt lat="48.13687" lon="7.08862">
        <ele>1146</ele>
        <time>2018-02-13T09:34:18+01:00</time>
      </trkpt>
      <trkpt lat="48.13685" lon="7.08857">
        <ele>1146</ele>
        <time>2018-02-13T09:34:22+01:00</time>
      </trkpt>
      <trkpt lat="48.13682" lon="7.08854">
        <ele>1146</ele>
        <time>2018-02-13T09:34:25+01:00</time>
      </trkpt>
      <trkpt lat="48.13675" lon="7.08853">
        <ele>1147</ele>
        <time>2018-02-13T09:34:33+01:00</time>
      </trkpt>
      <trkpt lat="48.13672" lon="7.08853">
        <ele>1147</ele>
        <time>2018-02-13T09:34:36+01:00</time>
      </trkpt>
      <trkpt lat="48.13654" lon="7.08859">
        <ele>1147</ele>
        <time>2018-02-13T09:34:51+01:00</time>
      </trkpt>
      <trkpt lat="48.1364" lon="7.08856">
        <ele>1147</ele>
        <time>2018-02-13T09:35:06+01:00</time>
      </trkpt>
      <trkpt lat="48.13637" lon="7.08852">
        <ele>1147</ele>
        <time>2018-02-13T09:35:32+01:00</time>
      </trkpt>
      <trkpt lat="48.13634" lon="7.08851">
        <ele>1147</ele>
        <time>2018-02-13T09:36:03+01:00</time>
      </trkpt>
      <trkpt lat="48.13635" lon="7.08852">
        <ele>1147</ele>
        <time>2018-02-13T09:36:29+01:00</time>
      </trkpt>
      <trkpt lat="48.13636" lon="7.08851">
        <ele>1147</ele>
        <time>2018-02-13T09:37:01+01:00</time>
      </trkpt>
      <trkpt lat="48.13637" lon="7.08849">
        <ele>1147</ele>
        <time>2018-02-13T09:37:33+01:00</time>
      </trkpt>
      <trkpt lat="48.13636" lon="7.08851">
        <ele>1147</ele>
        <time>2018-02-13T09:38:00+01:00</time>
      </trkpt>
      <trkpt lat="48.13635" lon="7.0885">
        <ele>1147</ele>
        <time>2018-02-13T09:38:29+01:00</time>
      </trkpt>
      <trkpt lat="48.13627" lon="7.08843">
        <ele>1148</ele>
        <time>2018-02-13T09:38:52+01:00</time>
      </trkpt>
      <trkpt lat="48.13618" lon="7.08829">
        <ele>1148</ele>
        <time>2018-02-13T09:39:14+01:00</time>
      </trkpt>
      <trkpt lat="48.1361" lon="7.08818">
        <ele>1150</ele>
        <time>2018-02-13T09:39:34+01:00</time>
      </trkpt>
      <trkpt lat="48.13603" lon="7.08822">
        <ele>1149</ele>
        <time>2018-02-13T09:39:42+01:00</time>
      </trkpt>
      <trkpt lat="48.13599" lon="7.08823">
        <ele>1150</ele>
        <time>2018-02-13T09:39:46+01:00</time>
      </trkpt>
      <trkpt lat="48.13592" lon="7.08823">
        <ele>1150</ele>
        <time>2018-02-13T09:39:53+01:00</time>
      </trkpt>
      <trkpt lat="48.1359" lon="7.08822">
        <ele>1150</ele>
        <time>2018-02-13T09:39:55+01:00</time>
      </trkpt>
      <trkpt lat="48.13587" lon="7.08821">
        <ele>1150</ele>
        <time>2018-02-13T09:39:58+01:00</time>
      </trkpt>
      <trkpt lat="48.13583" lon="7.08816">
        <ele>1151</ele>
        <time>2018-02-13T09:40:02+01:00</time>
      </trkpt>
      <trkpt lat="48.1358" lon="7.08814">
        <ele>1151</ele>
        <time>2018-02-13T09:40:05+01:00</time>
      </trkpt>
      <trkpt lat="48.13567" lon="7.08801">
        <ele>1153</ele>
        <time>2018-02-13T09:40:24+01:00</time>
      </trkpt>
      <trkpt lat="48.13564" lon="7.08786">
        <ele>1155</ele>
        <time>2018-02-13T09:40:38+01:00</time>
      </trkpt>
      <trkpt lat="48.13564" lon="7.08784">
        <ele>1156</ele>
        <time>2018-02-13T09:40:39+01:00</time>
      </trkpt>
      <trkpt lat="48.13554" lon="7.08769">
        <ele>1158</ele>
        <time>2018-02-13T09:40:59+01:00</time>
      </trkpt>
      <trkpt lat="48.13546" lon="7.08755">
        <ele>1160</ele>
        <time>2018-02-13T09:41:14+01:00</time>
      </trkpt>
      <trkpt lat="48.13535" lon="7.08739">
        <ele>1162</ele>
        <time>2018-02-13T09:41:34+01:00</time>
      </trkpt>
      <trkpt lat="48.13522" lon="7.08728">
        <ele>1164</ele>
        <time>2018-02-13T09:41:55+01:00</time>
      </trkpt>
      <trkpt lat="48.13511" lon="7.08716">
        <ele>1166</ele>
        <time>2018-02-13T09:42:12+01:00</time>
      </trkpt>
      <trkpt lat="48.13501" lon="7.087">
        <ele>1168</ele>
        <time>2018-02-13T09:42:31+01:00</time>
      </trkpt>
      <trkpt lat="48.13489" lon="7.0868">
        <ele>1171</ele>
        <time>2018-02-13T09:42:51+01:00</time>
      </trkpt>
      <trkpt lat="48.13478" lon="7.08669">
        <ele>1173</ele>
        <time>2018-02-13T09:43:09+01:00</time>
      </trkpt>
      <trkpt lat="48.13475" lon="7.08666">
        <ele>1173</ele>
        <time>2018-02-13T09:43:13+01:00</time>
      </trkpt>
      <trkpt lat="48.13464" lon="7.08649">
        <ele>1175</ele>
        <time>2018-02-13T09:43:33+01:00</time>
      </trkpt>
      <trkpt lat="48.13455" lon="7.08639">
        <ele>1176</ele>
        <time>2018-02-13T09:43:50+01:00</time>
      </trkpt>
      <trkpt lat="48.13452" lon="7.08639">
        <ele>1177</ele>
        <time>2018-02-13T09:43:54+01:00</time>
      </trkpt>
      <trkpt lat="48.13448" lon="7.08633">
        <ele>1177</ele>
        <time>2018-02-13T09:44:00+01:00</time>
      </trkpt>
      <trkpt lat="48.13439" lon="7.0862">
        <ele>1179</ele>
        <time>2018-02-13T09:44:12+01:00</time>
      </trkpt>
      <trkpt lat="48.13439" lon="7.08619">
        <ele>1179</ele>
        <time>2018-02-13T09:44:13+01:00</time>
      </trkpt>
      <trkpt lat="48.13424" lon="7.08595">
        <ele>1182</ele>
        <time>2018-02-13T09:44:35+01:00</time>
      </trkpt>
      <trkpt lat="48.13417" lon="7.08583">
        <ele>1183</ele>
        <time>2018-02-13T09:44:47+01:00</time>
      </trkpt>
      <trkpt lat="48.13411" lon="7.08558">
        <ele>1185</ele>
        <time>2018-02-13T09:45:05+01:00</time>
      </trkpt>
      <trkpt lat="48.13402" lon="7.08552">
        <ele>1186</ele>
        <time>2018-02-13T09:45:23+01:00</time>
      </trkpt>
      <trkpt lat="48.13395" lon="7.08549">
        <ele>1187</ele>
        <time>2018-02-13T09:45:41+01:00</time>
      </trkpt>
      <trkpt lat="48.13399" lon="7.08552">
        <ele>1186</ele>
        <time>2018-02-13T09:46:07+01:00</time>
      </trkpt>
      <trkpt lat="48.13398" lon="7.08545">
        <ele>1187</ele>
        <time>2018-02-13T09:46:34+01:00</time>
      </trkpt>
      <trkpt lat="48.13398" lon="7.08544">
        <ele>1187</ele>
        <time>2018-02-13T09:47:02+01:00</time>
      </trkpt>
      <trkpt lat="48.13398" lon="7.08541">
        <ele>1187</ele>
        <time>2018-02-13T09:47:26+01:00</time>
      </trkpt>
      <trkpt lat="48.13401" lon="7.08542">
        <ele>1187</ele>
        <time>2018-02-13T09:47:52+01:00</time>
      </trkpt>
      <trkpt lat="48.13401" lon="7.08545">
        <ele>1187</ele>
        <time>2018-02-13T09:48:12+01:00</time>
      </trkpt>
      <trkpt lat="48.13401" lon="7.08552">
        <ele>1186</ele>
        <time>2018-02-13T09:48:42+01:00</time>
      </trkpt>
      <trkpt lat="48.13404" lon="7.08552">
        <ele>1186</ele>
        <time>2018-02-13T09:49:12+01:00</time>
      </trkpt>
      <trkpt lat="48.13402" lon="7.08552">
        <ele>1186</ele>
        <time>2018-02-13T09:49:40+01:00</time>
      </trkpt>
      <trkpt lat="48.13402" lon="7.08553">
        <ele>1186</ele>
        <time>2018-02-13T09:50:08+01:00</time>
      </trkpt>
      <trkpt lat="48.134" lon="7.08555">
        <ele>1186</ele>
        <time>2018-02-13T09:50:35+01:00</time>
      </trkpt>
      <trkpt lat="48.13395" lon="7.08543">
        <ele>1187</ele>
        <time>2018-02-13T09:50:56+01:00</time>
      </trkpt>
      <trkpt lat="48.13392" lon="7.08533">
        <ele>1188</ele>
        <time>2018-02-13T09:51:15+01:00</time>
      </trkpt>
      <trkpt lat="48.13394" lon="7.08515">
        <ele>1189</ele>
        <time>2018-02-13T09:51:37+01:00</time>
      </trkpt>
      <trkpt lat="48.13387" lon="7.08494">
        <ele>1190</ele>
        <time>2018-02-13T09:51:56+01:00</time>
      </trkpt>
      <trkpt lat="48.13382" lon="7.08477">
        <ele>1191</ele>
        <time>2018-02-13T09:52:16+01:00</time>
      </trkpt>
      <trkpt lat="48.13375" lon="7.08451">
        <ele>1192</ele>
        <time>2018-02-13T09:52:39+01:00</time>
      </trkpt>
      <trkpt lat="48.13366" lon="7.08441">
        <ele>1194</ele>
        <time>2018-02-13T09:52:54+01:00</time>
      </trkpt>
      <trkpt lat="48.13348" lon="7.08451">
        <ele>1196</ele>
        <time>2018-02-13T09:53:17+01:00</time>
      </trkpt>
      <trkpt lat="48.13328" lon="7.08463">
        <ele>1198</ele>
        <time>2018-02-13T09:53:37+01:00</time>
      </trkpt>
      <trkpt lat="48.13313" lon="7.08466">
        <ele>1199</ele>
        <time>2018-02-13T09:53:55+01:00</time>
      </trkpt>
      <trkpt lat="48.13296" lon="7.08469">
        <ele>1200</ele>
        <time>2018-02-13T09:54:18+01:00</time>
      </trkpt>
      <trkpt lat="48.1329" lon="7.0847">
        <ele>1201</ele>
        <time>2018-02-13T09:54:25+01:00</time>
      </trkpt>
      <trkpt lat="48.13285" lon="7.08471">
        <ele>1201</ele>
        <time>2018-02-13T09:54:31+01:00</time>
      </trkpt>
      <trkpt lat="48.13281" lon="7.08471">
        <ele>1202</ele>
        <time>2018-02-13T09:54:35+01:00</time>
      </trkpt>
      <trkpt lat="48.1326" lon="7.08469">
        <ele>1204</ele>
        <time>2018-02-13T09:54:59+01:00</time>
      </trkpt>
      <trkpt lat="48.13243" lon="7.08465">
        <ele>1206</ele>
        <time>2018-02-13T09:55:19+01:00</time>
      </trkpt>
      <trkpt lat="48.13242" lon="7.08465">
        <ele>1206</ele>
        <time>2018-02-13T09:55:20+01:00</time>
      </trkpt>
      <trkpt lat="48.13226" lon="7.08461">
        <ele>1208</ele>
        <time>2018-02-13T09:55:37+01:00</time>
      </trkpt>
      <trkpt lat="48.13222" lon="7.08465">
        <ele>1209</ele>
        <time>2018-02-13T09:55:43+01:00</time>
      </trkpt>
      <trkpt lat="48.13208" lon="7.08467">
        <ele>1211</ele>
        <time>2018-02-13T09:56:01+01:00</time>
      </trkpt>
      <trkpt lat="48.13207" lon="7.08463">
        <ele>1211</ele>
        <time>2018-02-13T09:56:04+01:00</time>
      </trkpt>
      <trkpt lat="48.13203" lon="7.08455">
        <ele>1212</ele>
        <time>2018-02-13T09:56:23+01:00</time>
      </trkpt>
      <trkpt lat="48.13198" lon="7.08458">
        <ele>1213</ele>
        <time>2018-02-13T09:56:53+01:00</time>
      </trkpt>
      <trkpt lat="48.13198" lon="7.08458">
        <ele>1213</ele>
        <time>2018-02-13T09:56:54+01:00</time>
      </trkpt>
      <trkpt lat="48.13195" lon="7.08459">
        <ele>1213</ele>
        <time>2018-02-13T09:56:58+01:00</time>
      </trkpt>
      <trkpt lat="48.13187" lon="7.08457">
        <ele>1214</ele>
        <time>2018-02-13T09:57:09+01:00</time>
      </trkpt>
      <trkpt lat="48.13177" lon="7.08443">
        <ele>1217</ele>
        <time>2018-02-13T09:57:28+01:00</time>
      </trkpt>
      <trkpt lat="48.13174" lon="7.08439">
        <ele>1217</ele>
        <time>2018-02-13T09:57:32+01:00</time>
      </trkpt>
      <trkpt lat="48.13173" lon="7.08436">
        <ele>1217</ele>
        <time>2018-02-13T09:57:34+01:00</time>
      </trkpt>
      <trkpt lat="48.13163" lon="7.08429">
        <ele>1219</ele>
        <time>2018-02-13T09:57:47+01:00</time>
      </trkpt>
      <trkpt lat="48.13154" lon="7.08444">
        <ele>1219</ele>
        <time>2018-02-13T09:58:09+01:00</time>
      </trkpt>
      <trkpt lat="48.13142" lon="7.08462">
        <ele>1219</ele>
        <time>2018-02-13T09:58:31+01:00</time>
      </trkpt>
      <trkpt lat="48.13126" lon="7.08477">
        <ele>1220</ele>
        <time>2018-02-13T09:58:49+01:00</time>
      </trkpt>
      <trkpt lat="48.13119" lon="7.08477">
        <ele>1220</ele>
        <time>2018-02-13T09:58:57+01:00</time>
      </trkpt>
      <trkpt lat="48.13107" lon="7.08478">
        <ele>1221</ele>
        <time>2018-02-13T09:59:12+01:00</time>
      </trkpt>
      <trkpt lat="48.13103" lon="7.08477">
        <ele>1222</ele>
        <time>2018-02-13T09:59:17+01:00</time>
      </trkpt>
      <trkpt lat="48.13097" lon="7.08478">
        <ele>1222</ele>
        <time>2018-02-13T09:59:51+01:00</time>
      </trkpt>
      <trkpt lat="48.13101" lon="7.08479">
        <ele>1222</ele>
        <time>2018-02-13T10:00:23+01:00</time>
      </trkpt>
      <trkpt lat="48.13093" lon="7.08482">
        <ele>1222</ele>
        <time>2018-02-13T10:00:49+01:00</time>
      </trkpt>
      <trkpt lat="48.13086" lon="7.08487">
        <ele>1222</ele>
        <time>2018-02-13T10:01:00+01:00</time>
      </trkpt>
      <trkpt lat="48.13072" lon="7.08491">
        <ele>1222</ele>
        <time>2018-02-13T10:01:24+01:00</time>
      </trkpt>
      <trkpt lat="48.1307" lon="7.08505">
        <ele>1219</ele>
        <time>2018-02-13T10:01:48+01:00</time>
      </trkpt>
      <trkpt lat="48.13075" lon="7.08514">
        <ele>1216</ele>
        <time>2018-02-13T10:02:07+01:00</time>
      </trkpt>
      <trkpt lat="48.13071" lon="7.08516">
        <ele>1215</ele>
        <time>2018-02-13T10:02:13+01:00</time>
      </trkpt>
      <trkpt lat="48.13059" lon="7.08512">
        <ele>1216</ele>
        <time>2018-02-13T10:02:26+01:00</time>
      </trkpt>
      <trkpt lat="48.13046" lon="7.08501">
        <ele>1220</ele>
        <time>2018-02-13T10:02:45+01:00</time>
      </trkpt>
      <trkpt lat="48.13043" lon="7.08498">
        <ele>1221</ele>
        <time>2018-02-13T10:02:50+01:00</time>
      </trkpt>
      <trkpt lat="48.13042" lon="7.08497">
        <ele>1221</ele>
        <time>2018-02-13T10:02:52+01:00</time>
      </trkpt>
      <trkpt lat="48.13041" lon="7.08496">
        <ele>1221</ele>
        <time>2018-02-13T10:02:54+01:00</time>
      </trkpt>
      <trkpt lat="48.13031" lon="7.08484">
        <ele>1223</ele>
        <time>2018-02-13T10:03:10+01:00</time>
      </trkpt>
      <trkpt lat="48.13025" lon="7.08477">
        <ele>1224</ele>
        <time>2018-02-13T10:03:20+01:00</time>
      </trkpt>
      <trkpt lat="48.13018" lon="7.08472">
        <ele>1225</ele>
        <time>2018-02-13T10:03:31+01:00</time>
      </trkpt>
      <trkpt lat="48.13002" lon="7.08467">
        <ele>1226</ele>
        <time>2018-02-13T10:03:47+01:00</time>
      </trkpt>
      <trkpt lat="48.12994" lon="7.08468">
        <ele>1226</ele>
        <time>2018-02-13T10:03:59+01:00</time>
      </trkpt>
      <trkpt lat="48.12978" lon="7.08469">
        <ele>1225</ele>
        <time>2018-02-13T10:04:21+01:00</time>
      </trkpt>
      <trkpt lat="48.12961" lon="7.08468">
        <ele>1225</ele>
        <time>2018-02-13T10:04:42+01:00</time>
      </trkpt>
      <trkpt lat="48.12944" lon="7.08465">
        <ele>1225</ele>
        <time>2018-02-13T10:05:00+01:00</time>
      </trkpt>
      <trkpt lat="48.12938" lon="7.08463">
        <ele>1226</ele>
        <time>2018-02-13T10:05:07+01:00</time>
      </trkpt>
      <trkpt lat="48.12937" lon="7.08463">
        <ele>1226</ele>
        <time>2018-02-13T10:05:08+01:00</time>
      </trkpt>
      <trkpt lat="48.12929" lon="7.08462">
        <ele>1226</ele>
        <time>2018-02-13T10:05:26+01:00</time>
      </trkpt>
      <trkpt lat="48.12921" lon="7.08461">
        <ele>1226</ele>
        <time>2018-02-13T10:05:42+01:00</time>
      </trkpt>
      <trkpt lat="48.12916" lon="7.0846">
        <ele>1226</ele>
        <time>2018-02-13T10:06:01+01:00</time>
      </trkpt>
      <trkpt lat="48.12913" lon="7.08462">
        <ele>1225</ele>
        <time>2018-02-13T10:06:06+01:00</time>
      </trkpt>
      <trkpt lat="48.129" lon="7.08466">
        <ele>1226</ele>
        <time>2018-02-13T10:06:21+01:00</time>
      </trkpt>
      <trkpt lat="48.12899" lon="7.08463">
        <ele>1226</ele>
        <time>2018-02-13T10:06:52+01:00</time>
      </trkpt>
      <trkpt lat="48.129" lon="7.08463">
        <ele>1226</ele>
        <time>2018-02-13T10:07:17+01:00</time>
      </trkpt>
      <trkpt lat="48.12898" lon="7.08462">
        <ele>1227</ele>
        <time>2018-02-13T10:07:49+01:00</time>
      </trkpt>
      <trkpt lat="48.129" lon="7.08464">
        <ele>1226</ele>
        <time>2018-02-13T10:08:24+01:00</time>
      </trkpt>
      <trkpt lat="48.12901" lon="7.08463">
        <ele>1226</ele>
        <time>2018-02-13T10:08:57+01:00</time>
      </trkpt>
      <trkpt lat="48.12903" lon="7.08464">
        <ele>1226</ele>
        <time>2018-02-13T10:09:13+01:00</time>
      </trkpt>
      <trkpt lat="48.12902" lon="7.08464">
        <ele>1226</ele>
        <time>2018-02-13T10:09:14+01:00</time>
      </trkpt>
      <trkpt lat="48.12902" lon="7.08464">
        <ele>1226</ele>
        <time>2018-02-13T10:09:15+01:00</time>
      </trkpt>
      <trkpt lat="48.129" lon="7.08464">
        <ele>1226</ele>
        <time>2018-02-13T10:09:42+01:00</time>
      </trkpt>
      <trkpt lat="48.129" lon="7.08464">
        <ele>1226</ele>
        <time>2018-02-13T10:10:31+01:00</time>
      </trkpt>
      <trkpt lat="48.12899" lon="7.08468">
        <ele>1225</ele>
        <time>2018-02-13T10:11:06+01:00</time>
      </trkpt>
      <trkpt lat="48.12889" lon="7.08473">
        <ele>1225</ele>
        <time>2018-02-13T10:11:22+01:00</time>
      </trkpt>
      <trkpt lat="48.12875" lon="7.08481">
        <ele>1225</ele>
        <time>2018-02-13T10:11:45+01:00</time>
      </trkpt>
      <trkpt lat="48.12864" lon="7.08493">
        <ele>1224</ele>
        <time>2018-02-13T10:12:08+01:00</time>
      </trkpt>
      <trkpt lat="48.12852" lon="7.08497">
        <ele>1224</ele>
        <time>2018-02-13T10:12:26+01:00</time>
      </trkpt>
      <trkpt lat="48.12839" lon="7.08498">
        <ele>1225</ele>
        <time>2018-02-13T10:12:47+01:00</time>
      </trkpt>
      <trkpt lat="48.12835" lon="7.08497">
        <ele>1225</ele>
        <time>2018-02-13T10:12:52+01:00</time>
      </trkpt>
      <trkpt lat="48.12815" lon="7.0849">
        <ele>1225</ele>
        <time>2018-02-13T10:13:17+01:00</time>
      </trkpt>
      <trkpt lat="48.1281" lon="7.08487">
        <ele>1225</ele>
        <time>2018-02-13T10:13:35+01:00</time>
      </trkpt>
      <trkpt lat="48.12797" lon="7.08476">
        <ele>1226</ele>
        <time>2018-02-13T10:13:49+01:00</time>
      </trkpt>
      <trkpt lat="48.1278" lon="7.08469">
        <ele>1227</ele>
        <time>2018-02-13T10:14:06+01:00</time>
      </trkpt>
      <trkpt lat="48.12766" lon="7.08462">
        <ele>1227</ele>
        <time>2018-02-13T10:14:22+01:00</time>
      </trkpt>
      <trkpt lat="48.12757" lon="7.08457">
        <ele>1228</ele>
        <time>2018-02-13T10:14:40+01:00</time>
      </trkpt>
      <trkpt lat="48.12751" lon="7.08453">
        <ele>1229</ele>
        <time>2018-02-13T10:14:48+01:00</time>
      </trkpt>
      <trkpt lat="48.12749" lon="7.08452">
        <ele>1229</ele>
        <time>2018-02-13T10:14:50+01:00</time>
      </trkpt>
      <trkpt lat="48.12745" lon="7.08449">
        <ele>1230</ele>
        <time>2018-02-13T10:14:54+01:00</time>
      </trkpt>
      <trkpt lat="48.12742" lon="7.08449">
        <ele>1231</ele>
        <time>2018-02-13T10:15:13+01:00</time>
      </trkpt>
      <trkpt lat="48.12737" lon="7.08446">
        <ele>1232</ele>
        <time>2018-02-13T10:15:32+01:00</time>
      </trkpt>
      <trkpt lat="48.12723" lon="7.08448">
        <ele>1233</ele>
        <time>2018-02-13T10:15:47+01:00</time>
      </trkpt>
      <trkpt lat="48.1271" lon="7.08446">
        <ele>1235</ele>
        <time>2018-02-13T10:16:04+01:00</time>
      </trkpt>
      <trkpt lat="48.12696" lon="7.08451">
        <ele>1236</ele>
        <time>2018-02-13T10:16:27+01:00</time>
      </trkpt>
      <trkpt lat="48.12691" lon="7.08451">
        <ele>1236</ele>
        <time>2018-02-13T10:16:35+01:00</time>
      </trkpt>
      <trkpt lat="48.12689" lon="7.0845">
        <ele>1236</ele>
        <time>2018-02-13T10:16:38+01:00</time>
      </trkpt>
      <trkpt lat="48.12687" lon="7.08449">
        <ele>1237</ele>
        <time>2018-02-13T10:16:40+01:00</time>
      </trkpt>
      <trkpt lat="48.12674" lon="7.08441">
        <ele>1239</ele>
        <time>2018-02-13T10:16:58+01:00</time>
      </trkpt>
      <trkpt lat="48.12667" lon="7.08444">
        <ele>1240</ele>
        <time>2018-02-13T10:17:07+01:00</time>
      </trkpt>
      <trkpt lat="48.12656" lon="7.08456">
        <ele>1239</ele>
        <time>2018-02-13T10:17:26+01:00</time>
      </trkpt>
      <trkpt lat="48.12646" lon="7.08459">
        <ele>1239</ele>
        <time>2018-02-13T10:17:43+01:00</time>
      </trkpt>
      <trkpt lat="48.12638" lon="7.08461">
        <ele>1240</ele>
        <time>2018-02-13T10:17:51+01:00</time>
      </trkpt>
      <trkpt lat="48.12631" lon="7.08467">
        <ele>1239</ele>
        <time>2018-02-13T10:18:00+01:00</time>
      </trkpt>
      <trkpt lat="48.12623" lon="7.08478">
        <ele>1238</ele>
        <time>2018-02-13T10:18:15+01:00</time>
      </trkpt>
      <trkpt lat="48.12613" lon="7.08486">
        <ele>1238</ele>
        <time>2018-02-13T10:18:33+01:00</time>
      </trkpt>
      <trkpt lat="48.12597" lon="7.08493">
        <ele>1237</ele>
        <time>2018-02-13T10:18:57+01:00</time>
      </trkpt>
      <trkpt lat="48.12587" lon="7.08493">
        <ele>1238</ele>
        <time>2018-02-13T10:19:18+01:00</time>
      </trkpt>
      <trkpt lat="48.12576" lon="7.08485">
        <ele>1239</ele>
        <time>2018-02-13T10:19:39+01:00</time>
      </trkpt>
      <trkpt lat="48.12572" lon="7.08481">
        <ele>1240</ele>
        <time>2018-02-13T10:19:46+01:00</time>
      </trkpt>
      <trkpt lat="48.12571" lon="7.08478">
        <ele>1240</ele>
        <time>2018-02-13T10:19:51+01:00</time>
      </trkpt>
      <trkpt lat="48.12567" lon="7.08478">
        <ele>1240</ele>
        <time>2018-02-13T10:20:10+01:00</time>
      </trkpt>
      <trkpt lat="48.12556" lon="7.08474">
        <ele>1241</ele>
        <time>2018-02-13T10:20:30+01:00</time>
      </trkpt>
      <trkpt lat="48.12552" lon="7.08467">
        <ele>1242</ele>
        <time>2018-02-13T10:20:45+01:00</time>
      </trkpt>
      <trkpt lat="48.12552" lon="7.08462">
        <ele>1243</ele>
        <time>2018-02-13T10:21:08+01:00</time>
      </trkpt>
      <trkpt lat="48.12552" lon="7.08465">
        <ele>1243</ele>
        <time>2018-02-13T10:21:16+01:00</time>
      </trkpt>
      <trkpt lat="48.12552" lon="7.08469">
        <ele>1242</ele>
        <time>2018-02-13T10:21:37+01:00</time>
      </trkpt>
      <trkpt lat="48.12546" lon="7.08468">
        <ele>1242</ele>
        <time>2018-02-13T10:21:48+01:00</time>
      </trkpt>
      <trkpt lat="48.12539" lon="7.08467">
        <ele>1243</ele>
        <time>2018-02-13T10:21:55+01:00</time>
      </trkpt>
      <trkpt lat="48.12537" lon="7.08466">
        <ele>1243</ele>
        <time>2018-02-13T10:21:57+01:00</time>
      </trkpt>
      <trkpt lat="48.12523" lon="7.08465">
        <ele>1243</ele>
        <time>2018-02-13T10:22:13+01:00</time>
      </trkpt>
      <trkpt lat="48.12509" lon="7.08465">
        <ele>1243</ele>
        <time>2018-02-13T10:22:28+01:00</time>
      </trkpt>
      <trkpt lat="48.12493" lon="7.08465">
        <ele>1245</ele>
        <time>2018-02-13T10:22:47+01:00</time>
      </trkpt>
      <trkpt lat="48.12491" lon="7.08467">
        <ele>1245</ele>
        <time>2018-02-13T10:23:03+01:00</time>
      </trkpt>
      <trkpt lat="48.12482" lon="7.08467">
        <ele>1247</ele>
        <time>2018-02-13T10:23:26+01:00</time>
      </trkpt>
      <trkpt lat="48.12469" lon="7.08472">
        <ele>1249</ele>
        <time>2018-02-13T10:23:43+01:00</time>
      </trkpt>
      <trkpt lat="48.12466" lon="7.08473">
        <ele>1249</ele>
        <time>2018-02-13T10:24:06+01:00</time>
      </trkpt>
      <trkpt lat="48.12461" lon="7.08476">
        <ele>1250</ele>
        <time>2018-02-13T10:24:12+01:00</time>
      </trkpt>
      <trkpt lat="48.12448" lon="7.08482">
        <ele>1253</ele>
        <time>2018-02-13T10:24:31+01:00</time>
      </trkpt>
      <trkpt lat="48.12434" lon="7.08489">
        <ele>1255</ele>
        <time>2018-02-13T10:24:54+01:00</time>
      </trkpt>
      <trkpt lat="48.12429" lon="7.08493">
        <ele>1256</ele>
        <time>2018-02-13T10:25:14+01:00</time>
      </trkpt>
      <trkpt lat="48.12429" lon="7.08492">
        <ele>1256</ele>
        <time>2018-02-13T10:25:41+01:00</time>
      </trkpt>
      <trkpt lat="48.12429" lon="7.08492">
        <ele>1256</ele>
        <time>2018-02-13T10:26:08+01:00</time>
      </trkpt>
      <trkpt lat="48.12428" lon="7.08507">
        <ele>1253</ele>
        <time>2018-02-13T10:26:26+01:00</time>
      </trkpt>
      <trkpt lat="48.12426" lon="7.08522">
        <ele>1249</ele>
        <time>2018-02-13T10:26:49+01:00</time>
      </trkpt>
      <trkpt lat="48.1242" lon="7.08542">
        <ele>1245</ele>
        <time>2018-02-13T10:27:12+01:00</time>
      </trkpt>
      <trkpt lat="48.12404" lon="7.08548">
        <ele>1246</ele>
        <time>2018-02-13T10:27:30+01:00</time>
      </trkpt>
      <trkpt lat="48.12403" lon="7.08548">
        <ele>1246</ele>
        <time>2018-02-13T10:27:32+01:00</time>
      </trkpt>
      <trkpt lat="48.1239" lon="7.08545">
        <ele>1249</ele>
        <time>2018-02-13T10:27:48+01:00</time>
      </trkpt>
      <trkpt lat="48.12383" lon="7.08539">
        <ele>1252</ele>
        <time>2018-02-13T10:28:07+01:00</time>
      </trkpt>
      <trkpt lat="48.12374" lon="7.08534">
        <ele>1255</ele>
        <time>2018-02-13T10:28:25+01:00</time>
      </trkpt>
      <trkpt lat="48.12371" lon="7.08524">
        <ele>1259</ele>
        <time>2018-02-13T10:28:47+01:00</time>
      </trkpt>
      <trkpt lat="48.12368" lon="7.08526">
        <ele>1259</ele>
        <time>2018-02-13T10:29:05+01:00</time>
      </trkpt>
      <trkpt lat="48.12361" lon="7.08525">
        <ele>1260</ele>
        <time>2018-02-13T10:29:15+01:00</time>
      </trkpt>
      <trkpt lat="48.12353" lon="7.08531">
        <ele>1259</ele>
        <time>2018-02-13T10:29:26+01:00</time>
      </trkpt>
      <trkpt lat="48.12349" lon="7.08529">
        <ele>1260</ele>
        <time>2018-02-13T10:29:31+01:00</time>
      </trkpt>
      <trkpt lat="48.12339" lon="7.08525">
        <ele>1263</ele>
        <time>2018-02-13T10:29:49+01:00</time>
      </trkpt>
      <trkpt lat="48.12336" lon="7.08517">
        <ele>1266</ele>
        <time>2018-02-13T10:30:05+01:00</time>
      </trkpt>
      <trkpt lat="48.12332" lon="7.08518">
        <ele>1266</ele>
        <time>2018-02-13T10:30:10+01:00</time>
      </trkpt>
      <trkpt lat="48.1233" lon="7.08517">
        <ele>1267</ele>
        <time>2018-02-13T10:30:12+01:00</time>
      </trkpt>
      <trkpt lat="48.12323" lon="7.08518">
        <ele>1267</ele>
        <time>2018-02-13T10:30:19+01:00</time>
      </trkpt>
      <trkpt lat="48.12311" lon="7.0852">
        <ele>1267</ele>
        <time>2018-02-13T10:30:33+01:00</time>
      </trkpt>
      <trkpt lat="48.123" lon="7.08528">
        <ele>1265</ele>
        <time>2018-02-13T10:30:50+01:00</time>
      </trkpt>
      <trkpt lat="48.12297" lon="7.08526">
        <ele>1266</ele>
        <time>2018-02-13T10:31:04+01:00</time>
      </trkpt>
      <trkpt lat="48.12285" lon="7.08524">
        <ele>1267</ele>
        <time>2018-02-13T10:31:21+01:00</time>
      </trkpt>
      <trkpt lat="48.12279" lon="7.08521">
        <ele>1269</ele>
        <time>2018-02-13T10:31:29+01:00</time>
      </trkpt>
      <trkpt lat="48.12276" lon="7.08519">
        <ele>1269</ele>
        <time>2018-02-13T10:31:32+01:00</time>
      </trkpt>
      <trkpt lat="48.12265" lon="7.08512">
        <ele>1272</ele>
        <time>2018-02-13T10:31:46+01:00</time>
      </trkpt>
      <trkpt lat="48.12263" lon="7.08513">
        <ele>1272</ele>
        <time>2018-02-13T10:31:49+01:00</time>
      </trkpt>
      <trkpt lat="48.12254" lon="7.08525">
        <ele>1269</ele>
        <time>2018-02-13T10:32:08+01:00</time>
      </trkpt>
      <trkpt lat="48.12245" lon="7.08535">
        <ele>1266</ele>
        <time>2018-02-13T10:32:23+01:00</time>
      </trkpt>
      <trkpt lat="48.12237" lon="7.08542">
        <ele>1265</ele>
        <time>2018-02-13T10:32:32+01:00</time>
      </trkpt>
      <trkpt lat="48.12232" lon="7.08546">
        <ele>1264</ele>
        <time>2018-02-13T10:32:37+01:00</time>
      </trkpt>
      <trkpt lat="48.12219" lon="7.08553">
        <ele>1264</ele>
        <time>2018-02-13T10:32:52+01:00</time>
      </trkpt>
      <trkpt lat="48.12209" lon="7.08554">
        <ele>1265</ele>
        <time>2018-02-13T10:33:10+01:00</time>
      </trkpt>
      <trkpt lat="48.122" lon="7.08544">
        <ele>1269</ele>
        <time>2018-02-13T10:33:25+01:00</time>
      </trkpt>
      <trkpt lat="48.12196" lon="7.08537">
        <ele>1271</ele>
        <time>2018-02-13T10:33:33+01:00</time>
      </trkpt>
      <trkpt lat="48.12184" lon="7.08534">
        <ele>1274</ele>
        <time>2018-02-13T10:33:49+01:00</time>
      </trkpt>
      <trkpt lat="48.12177" lon="7.08545">
        <ele>1272</ele>
        <time>2018-02-13T10:34:05+01:00</time>
      </trkpt>
      <trkpt lat="48.12165" lon="7.08548">
        <ele>1273</ele>
        <time>2018-02-13T10:34:21+01:00</time>
      </trkpt>
      <trkpt lat="48.12162" lon="7.08548">
        <ele>1273</ele>
        <time>2018-02-13T10:34:39+01:00</time>
      </trkpt>
      <trkpt lat="48.1216" lon="7.0855">
        <ele>1273</ele>
        <time>2018-02-13T10:34:57+01:00</time>
      </trkpt>
      <trkpt lat="48.12159" lon="7.08549">
        <ele>1273</ele>
        <time>2018-02-13T10:35:16+01:00</time>
      </trkpt>
      <trkpt lat="48.1216" lon="7.08554">
        <ele>1272</ele>
        <time>2018-02-13T10:35:34+01:00</time>
      </trkpt>
      <trkpt lat="48.12159" lon="7.08558">
        <ele>1271</ele>
        <time>2018-02-13T10:35:53+01:00</time>
      </trkpt>
      <trkpt lat="48.12157" lon="7.08555">
        <ele>1272</ele>
        <time>2018-02-13T10:36:17+01:00</time>
      </trkpt>
      <trkpt lat="48.12155" lon="7.08576">
        <ele>1267</ele>
        <time>2018-02-13T10:36:35+01:00</time>
      </trkpt>
      <trkpt lat="48.12149" lon="7.08593">
        <ele>1262</ele>
        <time>2018-02-13T10:36:54+01:00</time>
      </trkpt>
      <trkpt lat="48.12139" lon="7.08598">
        <ele>1262</ele>
        <time>2018-02-13T10:37:08+01:00</time>
      </trkpt>
      <trkpt lat="48.12128" lon="7.08603">
        <ele>1262</ele>
        <time>2018-02-13T10:37:24+01:00</time>
      </trkpt>
      <trkpt lat="48.12123" lon="7.08602">
        <ele>1263</ele>
        <time>2018-02-13T10:37:29+01:00</time>
      </trkpt>
      <trkpt lat="48.12103" lon="7.08601">
        <ele>1267</ele>
        <time>2018-02-13T10:37:47+01:00</time>
      </trkpt>
      <trkpt lat="48.12093" lon="7.08598">
        <ele>1270</ele>
        <time>2018-02-13T10:38:00+01:00</time>
      </trkpt>
      <trkpt lat="48.12083" lon="7.08597">
        <ele>1272</ele>
        <time>2018-02-13T10:38:14+01:00</time>
      </trkpt>
      <trkpt lat="48.12081" lon="7.08592">
        <ele>1274</ele>
        <time>2018-02-13T10:38:22+01:00</time>
      </trkpt>
      <trkpt lat="48.12071" lon="7.08585">
        <ele>1276</ele>
        <time>2018-02-13T10:38:40+01:00</time>
      </trkpt>
      <trkpt lat="48.12061" lon="7.08582">
        <ele>1277</ele>
        <time>2018-02-13T10:38:57+01:00</time>
      </trkpt>
      <trkpt lat="48.12057" lon="7.08575">
        <ele>1278</ele>
        <time>2018-02-13T10:39:10+01:00</time>
      </trkpt>
      <trkpt lat="48.12043" lon="7.08574">
        <ele>1279</ele>
        <time>2018-02-13T10:39:27+01:00</time>
      </trkpt>
      <trkpt lat="48.12034" lon="7.08581">
        <ele>1279</ele>
        <time>2018-02-13T10:39:38+01:00</time>
      </trkpt>
      <trkpt lat="48.12035" lon="7.08591">
        <ele>1277</ele>
        <time>2018-02-13T10:39:51+01:00</time>
      </trkpt>
      <trkpt lat="48.12034" lon="7.08585">
        <ele>1278</ele>
        <time>2018-02-13T10:40:13+01:00</time>
      </trkpt>
      <trkpt lat="48.12034" lon="7.08583">
        <ele>1278</ele>
        <time>2018-02-13T10:40:45+01:00</time>
      </trkpt>
      <trkpt lat="48.12034" lon="7.08583">
        <ele>1278</ele>
        <time>2018-02-13T10:40:52+01:00</time>
      </trkpt>
      <trkpt lat="48.12034" lon="7.08584">
        <ele>1278</ele>
        <time>2018-02-13T10:40:53+01:00</time>
      </trkpt>
      <trkpt lat="48.12034" lon="7.08584">
        <ele>1278</ele>
        <time>2018-02-13T10:40:54+01:00</time>
      </trkpt>
      <trkpt lat="48.12034" lon="7.08585">
        <ele>1278</ele>
        <time>2018-02-13T10:40:55+01:00</time>
      </trkpt>
      <trkpt lat="48.12034" lon="7.08585">
        <ele>1278</ele>
        <time>2018-02-13T10:40:56+01:00</time>
      </trkpt>
      <trkpt lat="48.12032" lon="7.08585">
        <ele>1278</ele>
        <time>2018-02-13T10:41:20+01:00</time>
      </trkpt>
      <trkpt lat="48.12032" lon="7.08583">
        <ele>1278</ele>
        <time>2018-02-13T10:41:57+01:00</time>
      </trkpt>
      <trkpt lat="48.12034" lon="7.08579">
        <ele>1279</ele>
        <time>2018-02-13T10:42:24+01:00</time>
      </trkpt>
      <trkpt lat="48.12035" lon="7.08576">
        <ele>1279</ele>
        <time>2018-02-13T10:42:48+01:00</time>
      </trkpt>
      <trkpt lat="48.12032" lon="7.08584">
        <ele>1278</ele>
        <time>2018-02-13T10:43:07+01:00</time>
      </trkpt>
      <trkpt lat="48.12034" lon="7.08586">
        <ele>1278</ele>
        <time>2018-02-13T10:43:26+01:00</time>
      </trkpt>
      <trkpt lat="48.12034" lon="7.08585">
        <ele>1278</ele>
        <time>2018-02-13T10:43:39+01:00</time>
      </trkpt>
      <trkpt lat="48.12034" lon="7.08585">
        <ele>1278</ele>
        <time>2018-02-13T10:43:40+01:00</time>
      </trkpt>
      <trkpt lat="48.12033" lon="7.08586">
        <ele>1278</ele>
        <time>2018-02-13T10:43:41+01:00</time>
      </trkpt>
      <trkpt lat="48.12033" lon="7.08587">
        <ele>1278</ele>
        <time>2018-02-13T10:43:42+01:00</time>
      </trkpt>
      <trkpt lat="48.12033" lon="7.08586">
        <ele>1278</ele>
        <time>2018-02-13T10:43:44+01:00</time>
      </trkpt>
      <trkpt lat="48.12033" lon="7.08585">
        <ele>1278</ele>
        <time>2018-02-13T10:44:03+01:00</time>
      </trkpt>
      <trkpt lat="48.12033" lon="7.08586">
        <ele>1278</ele>
        <time>2018-02-13T10:44:20+01:00</time>
      </trkpt>
      <trkpt lat="48.12033" lon="7.08588">
        <ele>1278</ele>
        <time>2018-02-13T10:44:38+01:00</time>
      </trkpt>
      <trkpt lat="48.12035" lon="7.08584">
        <ele>1278</ele>
        <time>2018-02-13T10:44:59+01:00</time>
      </trkpt>
      <trkpt lat="48.12036" lon="7.08584">
        <ele>1278</ele>
        <time>2018-02-13T10:45:23+01:00</time>
      </trkpt>
      <trkpt lat="48.12036" lon="7.08591">
        <ele>1277</ele>
        <time>2018-02-13T10:45:40+01:00</time>
      </trkpt>
      <trkpt lat="48.12035" lon="7.08592">
        <ele>1277</ele>
        <time>2018-02-13T10:45:41+01:00</time>
      </trkpt>
      <trkpt lat="48.12035" lon="7.08592">
        <ele>1277</ele>
        <time>2018-02-13T10:45:42+01:00</time>
      </trkpt>
      <trkpt lat="48.12035" lon="7.08591">
        <ele>1277</ele>
        <time>2018-02-13T10:45:44+01:00</time>
      </trkpt>
      <trkpt lat="48.12035" lon="7.08586">
        <ele>1278</ele>
        <time>2018-02-13T10:46:05+01:00</time>
      </trkpt>
      <trkpt lat="48.12033" lon="7.08587">
        <ele>1278</ele>
        <time>2018-02-13T10:46:25+01:00</time>
      </trkpt>
      <trkpt lat="48.12034" lon="7.08588">
        <ele>1278</ele>
        <time>2018-02-13T10:46:29+01:00</time>
      </trkpt>
      <trkpt lat="48.12034" lon="7.0859">
        <ele>1277</ele>
        <time>2018-02-13T10:46:42+01:00</time>
      </trkpt>
      <trkpt lat="48.12034" lon="7.08585">
        <ele>1278</ele>
        <time>2018-02-13T10:46:56+01:00</time>
      </trkpt>
      <trkpt lat="48.12035" lon="7.08587">
        <ele>1278</ele>
        <time>2018-02-13T10:47:15+01:00</time>
      </trkpt>
      <trkpt lat="48.12034" lon="7.08585">
        <ele>1278</ele>
        <time>2018-02-13T10:47:33+01:00</time>
      </trkpt>
      <trkpt lat="48.12035" lon="7.08585">
        <ele>1278</ele>
        <time>2018-02-13T10:47:51+01:00</time>
      </trkpt>
      <trkpt lat="48.12035" lon="7.08581">
        <ele>1279</ele>
        <time>2018-02-13T10:48:10+01:00</time>
      </trkpt>
      <trkpt lat="48.12035" lon="7.08582">
        <ele>1278</ele>
        <time>2018-02-13T10:48:28+01:00</time>
      </trkpt>
      <trkpt lat="48.12035" lon="7.08588">
        <ele>1278</ele>
        <time>2018-02-13T10:48:45+01:00</time>
      </trkpt>
      <trkpt lat="48.12035" lon="7.08586">
        <ele>1278</ele>
        <time>2018-02-13T10:49:05+01:00</time>
      </trkpt>
      <trkpt lat="48.12036" lon="7.08583">
        <ele>1278</ele>
        <time>2018-02-13T10:49:22+01:00</time>
      </trkpt>
      <trkpt lat="48.12036" lon="7.08584">
        <ele>1278</ele>
        <time>2018-02-13T10:49:24+01:00</time>
      </trkpt>
      <trkpt lat="48.12037" lon="7.08583">
        <ele>1278</ele>
        <time>2018-02-13T10:49:25+01:00</time>
      </trkpt>
      <trkpt lat="48.12036" lon="7.08585">
        <ele>1278</ele>
        <time>2018-02-13T10:49:44+01:00</time>
      </trkpt>
      <trkpt lat="48.12035" lon="7.08584">
        <ele>1278</ele>
        <time>2018-02-13T10:50:01+01:00</time>
      </trkpt>
      <trkpt lat="48.12035" lon="7.08586">
        <ele>1278</ele>
        <time>2018-02-13T10:50:16+01:00</time>
      </trkpt>
      <trkpt lat="48.12035" lon="7.08583">
        <ele>1278</ele>
        <time>2018-02-13T10:50:34+01:00</time>
      </trkpt>
      <trkpt lat="48.12034" lon="7.08585">
        <ele>1278</ele>
        <time>2018-02-13T10:50:51+01:00</time>
      </trkpt>
      <trkpt lat="48.12035" lon="7.08586">
        <ele>1278</ele>
        <time>2018-02-13T10:51:09+01:00</time>
      </trkpt>
      <trkpt lat="48.12036" lon="7.08584">
        <ele>1278</ele>
        <time>2018-02-13T10:51:26+01:00</time>
      </trkpt>
      <trkpt lat="48.12037" lon="7.08584">
        <ele>1278</ele>
        <time>2018-02-13T10:51:44+01:00</time>
      </trkpt>
      <trkpt lat="48.12036" lon="7.08583">
        <ele>1278</ele>
        <time>2018-02-13T10:52:01+01:00</time>
      </trkpt>
      <trkpt lat="48.12034" lon="7.08583">
        <ele>1278</ele>
        <time>2018-02-13T10:52:20+01:00</time>
      </trkpt>
      <trkpt lat="48.12035" lon="7.08584">
        <ele>1278</ele>
        <time>2018-02-13T10:52:40+01:00</time>
      </trkpt>
      <trkpt lat="48.12036" lon="7.08582">
        <ele>1278</ele>
        <time>2018-02-13T10:52:57+01:00</time>
      </trkpt>
      <trkpt lat="48.12036" lon="7.08583">
        <ele>1278</ele>
        <time>2018-02-13T10:53:15+01:00</time>
      </trkpt>
      <trkpt lat="48.12036" lon="7.08584">
        <ele>1278</ele>
        <time>2018-02-13T10:53:32+01:00</time>
      </trkpt>
      <trkpt lat="48.12037" lon="7.08585">
        <ele>1278</ele>
        <time>2018-02-13T10:53:34+01:00</time>
      </trkpt>
      <trkpt lat="48.12037" lon="7.08585">
        <ele>1278</ele>
        <time>2018-02-13T10:53:35+01:00</time>
      </trkpt>
      <trkpt lat="48.12037" lon="7.08586">
        <ele>1278</ele>
        <time>2018-02-13T10:53:37+01:00</time>
      </trkpt>
      <trkpt lat="48.12035" lon="7.08585">
        <ele>1278</ele>
        <time>2018-02-13T10:53:56+01:00</time>
      </trkpt>
      <trkpt lat="48.12033" lon="7.08585">
        <ele>1278</ele>
        <time>2018-02-13T10:54:13+01:00</time>
      </trkpt>
      <trkpt lat="48.12035" lon="7.08571">
        <ele>1280</ele>
        <time>2018-02-13T10:54:32+01:00</time>
      </trkpt>
      <trkpt lat="48.12043" lon="7.08563">
        <ele>1280</ele>
        <time>2018-02-13T10:54:44+01:00</time>
      </trkpt>
      <trkpt lat="48.12052" lon="7.08548">
        <ele>1282</ele>
        <time>2018-02-13T10:54:58+01:00</time>
      </trkpt>
      <trkpt lat="48.12056" lon="7.08524">
        <ele>1285</ele>
        <time>2018-02-13T10:55:20+01:00</time>
      </trkpt>
      <trkpt lat="48.12051" lon="7.08514">
        <ele>1286</ele>
        <time>2018-02-13T10:55:37+01:00</time>
      </trkpt>
      <trkpt lat="48.12051" lon="7.08501">
        <ele>1288</ele>
        <time>2018-02-13T10:55:47+01:00</time>
      </trkpt>
      <trkpt lat="48.12051" lon="7.08499">
        <ele>1288</ele>
        <time>2018-02-13T10:55:48+01:00</time>
      </trkpt>
      <trkpt lat="48.1205" lon="7.08493">
        <ele>1289</ele>
        <time>2018-02-13T10:55:53+01:00</time>
      </trkpt>
      <trkpt lat="48.12052" lon="7.08474">
        <ele>1290</ele>
        <time>2018-02-13T10:56:12+01:00</time>
      </trkpt>
      <trkpt lat="48.12052" lon="7.08458">
        <ele>1291</ele>
        <time>2018-02-13T10:56:27+01:00</time>
      </trkpt>
      <trkpt lat="48.12052" lon="7.08448">
        <ele>1291</ele>
        <time>2018-02-13T10:56:37+01:00</time>
      </trkpt>
      <trkpt lat="48.12052" lon="7.08447">
        <ele>1292</ele>
        <time>2018-02-13T10:56:38+01:00</time>
      </trkpt>
      <trkpt lat="48.12051" lon="7.08439">
        <ele>1292</ele>
        <time>2018-02-13T10:56:44+01:00</time>
      </trkpt>
      <trkpt lat="48.12041" lon="7.08426">
        <ele>1293</ele>
        <time>2018-02-13T10:57:03+01:00</time>
      </trkpt>
      <trkpt lat="48.12032" lon="7.08421">
        <ele>1293</ele>
        <time>2018-02-13T10:57:17+01:00</time>
      </trkpt>
      <trkpt lat="48.12025" lon="7.08411">
        <ele>1293</ele>
        <time>2018-02-13T10:57:32+01:00</time>
      </trkpt>
      <trkpt lat="48.12025" lon="7.08386">
        <ele>1294</ele>
        <time>2018-02-13T10:57:51+01:00</time>
      </trkpt>
      <trkpt lat="48.12027" lon="7.08376">
        <ele>1294</ele>
        <time>2018-02-13T10:58:06+01:00</time>
      </trkpt>
      <trkpt lat="48.12027" lon="7.08374">
        <ele>1295</ele>
        <time>2018-02-13T10:58:09+01:00</time>
      </trkpt>
      <trkpt lat="48.12027" lon="7.0837">
        <ele>1295</ele>
        <time>2018-02-13T10:58:12+01:00</time>
      </trkpt>
      <trkpt lat="48.12022" lon="7.08359">
        <ele>1295</ele>
        <time>2018-02-13T10:58:32+01:00</time>
      </trkpt>
      <trkpt lat="48.1202" lon="7.08357">
        <ele>1295</ele>
        <time>2018-02-13T10:58:36+01:00</time>
      </trkpt>
      <trkpt lat="48.12011" lon="7.08341">
        <ele>1296</ele>
        <time>2018-02-13T10:58:49+01:00</time>
      </trkpt>
      <trkpt lat="48.12006" lon="7.08338">
        <ele>1297</ele>
        <time>2018-02-13T10:58:54+01:00</time>
      </trkpt>
      <trkpt lat="48.11996" lon="7.08335">
        <ele>1297</ele>
        <time>2018-02-13T10:59:10+01:00</time>
      </trkpt>
      <trkpt lat="48.11995" lon="7.08335">
        <ele>1297</ele>
        <time>2018-02-13T10:59:12+01:00</time>
      </trkpt>
      <trkpt lat="48.11989" lon="7.08336">
        <ele>1297</ele>
        <time>2018-02-13T10:59:17+01:00</time>
      </trkpt>
      <trkpt lat="48.11987" lon="7.08335">
        <ele>1297</ele>
        <time>2018-02-13T10:59:19+01:00</time>
      </trkpt>
      <trkpt lat="48.1198" lon="7.08336">
        <ele>1297</ele>
        <time>2018-02-13T10:59:27+01:00</time>
      </trkpt>
      <trkpt lat="48.11978" lon="7.08335">
        <ele>1297</ele>
        <time>2018-02-13T10:59:29+01:00</time>
      </trkpt>
      <trkpt lat="48.11967" lon="7.08335">
        <ele>1297</ele>
        <time>2018-02-13T10:59:42+01:00</time>
      </trkpt>
      <trkpt lat="48.11962" lon="7.08333">
        <ele>1297</ele>
        <time>2018-02-13T10:59:48+01:00</time>
      </trkpt>
      <trkpt lat="48.11959" lon="7.08333">
        <ele>1297</ele>
        <time>2018-02-13T10:59:51+01:00</time>
      </trkpt>
      <trkpt lat="48.11949" lon="7.08319">
        <ele>1297</ele>
        <time>2018-02-13T11:00:07+01:00</time>
      </trkpt>
      <trkpt lat="48.11939" lon="7.08311">
        <ele>1297</ele>
        <time>2018-02-13T11:00:22+01:00</time>
      </trkpt>
      <trkpt lat="48.11939" lon="7.0829">
        <ele>1297</ele>
        <time>2018-02-13T11:00:33+01:00</time>
      </trkpt>
      <trkpt lat="48.11935" lon="7.08278">
        <ele>1298</ele>
        <time>2018-02-13T11:00:52+01:00</time>
      </trkpt>
      <trkpt lat="48.11937" lon="7.08259">
        <ele>1298</ele>
        <time>2018-02-13T11:01:05+01:00</time>
      </trkpt>
      <trkpt lat="48.11939" lon="7.08247">
        <ele>1298</ele>
        <time>2018-02-13T11:01:13+01:00</time>
      </trkpt>
      <trkpt lat="48.11937" lon="7.08237">
        <ele>1298</ele>
        <time>2018-02-13T11:01:31+01:00</time>
      </trkpt>
      <trkpt lat="48.11929" lon="7.08237">
        <ele>1298</ele>
        <time>2018-02-13T11:01:45+01:00</time>
      </trkpt>
      <trkpt lat="48.11928" lon="7.08231">
        <ele>1298</ele>
        <time>2018-02-13T11:01:58+01:00</time>
      </trkpt>
      <trkpt lat="48.11928" lon="7.08231">
        <ele>1298</ele>
        <time>2018-02-13T11:02:21+01:00</time>
      </trkpt>
      <trkpt lat="48.11928" lon="7.08234">
        <ele>1298</ele>
        <time>2018-02-13T11:02:41+01:00</time>
      </trkpt>
      <trkpt lat="48.11927" lon="7.08237">
        <ele>1298</ele>
        <time>2018-02-13T11:03:06+01:00</time>
      </trkpt>
      <trkpt lat="48.11925" lon="7.08232">
        <ele>1298</ele>
        <time>2018-02-13T11:03:26+01:00</time>
      </trkpt>
      <trkpt lat="48.11927" lon="7.08232">
        <ele>1298</ele>
        <time>2018-02-13T11:03:57+01:00</time>
      </trkpt>
      <trkpt lat="48.11926" lon="7.08233">
        <ele>1298</ele>
        <time>2018-02-13T11:04:12+01:00</time>
      </trkpt>
      <trkpt lat="48.11925" lon="7.08236">
        <ele>1298</ele>
        <time>2018-02-13T11:04:37+01:00</time>
      </trkpt>
      <trkpt lat="48.11921" lon="7.08234">
        <ele>1298</ele>
        <time>2018-02-13T11:04:53+01:00</time>
      </trkpt>
      <trkpt lat="48.11918" lon="7.08229">
        <ele>1298</ele>
        <time>2018-02-13T11:05:15+01:00</time>
      </trkpt>
      <trkpt lat="48.1192" lon="7.08225">
        <ele>1298</ele>
        <time>2018-02-13T11:05:38+01:00</time>
      </trkpt>
      <trkpt lat="48.11918" lon="7.08224">
        <ele>1298</ele>
        <time>2018-02-13T11:06:00+01:00</time>
      </trkpt>
      <trkpt lat="48.11905" lon="7.08221">
        <ele>1298</ele>
        <time>2018-02-13T11:06:22+01:00</time>
      </trkpt>
      <trkpt lat="48.1189" lon="7.08215">
        <ele>1298</ele>
        <time>2018-02-13T11:06:42+01:00</time>
      </trkpt>
      <trkpt lat="48.11879" lon="7.08208">
        <ele>1298</ele>
        <time>2018-02-13T11:06:58+01:00</time>
      </trkpt>
      <trkpt lat="48.11868" lon="7.08201">
        <ele>1298</ele>
        <time>2018-02-13T11:07:11+01:00</time>
      </trkpt>
      <trkpt lat="48.11854" lon="7.08198">
        <ele>1298</ele>
        <time>2018-02-13T11:07:23+01:00</time>
      </trkpt>
      <trkpt lat="48.11837" lon="7.08195">
        <ele>1298</ele>
        <time>2018-02-13T11:07:39+01:00</time>
      </trkpt>
      <trkpt lat="48.11822" lon="7.08191">
        <ele>1298</ele>
        <time>2018-02-13T11:07:54+01:00</time>
      </trkpt>
      <trkpt lat="48.11817" lon="7.08189">
        <ele>1298</ele>
        <time>2018-02-13T11:07:59+01:00</time>
      </trkpt>
      <trkpt lat="48.11801" lon="7.08177">
        <ele>1298</ele>
        <time>2018-02-13T11:08:17+01:00</time>
      </trkpt>
      <trkpt lat="48.11793" lon="7.08173">
        <ele>1298</ele>
        <time>2018-02-13T11:08:24+01:00</time>
      </trkpt>
      <trkpt lat="48.11776" lon="7.08162">
        <ele>1298</ele>
        <time>2018-02-13T11:08:42+01:00</time>
      </trkpt>
      <trkpt lat="48.11761" lon="7.08151">
        <ele>1298</ele>
        <time>2018-02-13T11:08:58+01:00</time>
      </trkpt>
      <trkpt lat="48.11742" lon="7.0814">
        <ele>1298</ele>
        <time>2018-02-13T11:09:18+01:00</time>
      </trkpt>
      <trkpt lat="48.11723" lon="7.0813">
        <ele>1297</ele>
        <time>2018-02-13T11:09:37+01:00</time>
      </trkpt>
      <trkpt lat="48.11706" lon="7.08121">
        <ele>1296</ele>
        <time>2018-02-13T11:09:55+01:00</time>
      </trkpt>
      <trkpt lat="48.1169" lon="7.08109">
        <ele>1295</ele>
        <time>2018-02-13T11:10:12+01:00</time>
      </trkpt>
      <trkpt lat="48.1168" lon="7.08103">
        <ele>1295</ele>
        <time>2018-02-13T11:10:22+01:00</time>
      </trkpt>
      <trkpt lat="48.11662" lon="7.0809">
        <ele>1294</ele>
        <time>2018-02-13T11:10:43+01:00</time>
      </trkpt>
      <trkpt lat="48.11645" lon="7.0808">
        <ele>1294</ele>
        <time>2018-02-13T11:10:58+01:00</time>
      </trkpt>
      <trkpt lat="48.11626" lon="7.08071">
        <ele>1294</ele>
        <time>2018-02-13T11:11:17+01:00</time>
      </trkpt>
      <trkpt lat="48.11607" lon="7.08064">
        <ele>1294</ele>
        <time>2018-02-13T11:11:35+01:00</time>
      </trkpt>
      <trkpt lat="48.11606" lon="7.08064">
        <ele>1294</ele>
        <time>2018-02-13T11:11:36+01:00</time>
      </trkpt>
      <trkpt lat="48.11604" lon="7.08063">
        <ele>1294</ele>
        <time>2018-02-13T11:11:38+01:00</time>
      </trkpt>
      <trkpt lat="48.11587" lon="7.08053">
        <ele>1294</ele>
        <time>2018-02-13T11:11:54+01:00</time>
      </trkpt>
      <trkpt lat="48.11583" lon="7.08051">
        <ele>1294</ele>
        <time>2018-02-13T11:11:59+01:00</time>
      </trkpt>
      <trkpt lat="48.11564" lon="7.08042">
        <ele>1295</ele>
        <time>2018-02-13T11:12:17+01:00</time>
      </trkpt>
      <trkpt lat="48.11547" lon="7.08035">
        <ele>1296</ele>
        <time>2018-02-13T11:12:35+01:00</time>
      </trkpt>
      <trkpt lat="48.11543" lon="7.08034">
        <ele>1296</ele>
        <time>2018-02-13T11:12:39+01:00</time>
      </trkpt>
      <trkpt lat="48.11527" lon="7.08026">
        <ele>1297</ele>
        <time>2018-02-13T11:12:55+01:00</time>
      </trkpt>
      <trkpt lat="48.11523" lon="7.08022">
        <ele>1297</ele>
        <time>2018-02-13T11:13:10+01:00</time>
      </trkpt>
      <trkpt lat="48.11524" lon="7.08017">
        <ele>1297</ele>
        <time>2018-02-13T11:13:33+01:00</time>
      </trkpt>
      <trkpt lat="48.11509" lon="7.08013">
        <ele>1297</ele>
        <time>2018-02-13T11:13:54+01:00</time>
      </trkpt>
      <trkpt lat="48.11497" lon="7.08005">
        <ele>1297</ele>
        <time>2018-02-13T11:14:08+01:00</time>
      </trkpt>
      <trkpt lat="48.11477" lon="7.07995">
        <ele>1298</ele>
        <time>2018-02-13T11:14:30+01:00</time>
      </trkpt>
      <trkpt lat="48.11466" lon="7.07992">
        <ele>1298</ele>
        <time>2018-02-13T11:14:46+01:00</time>
      </trkpt>
      <trkpt lat="48.11451" lon="7.07984">
        <ele>1298</ele>
        <time>2018-02-13T11:15:01+01:00</time>
      </trkpt>
      <trkpt lat="48.11448" lon="7.07982">
        <ele>1299</ele>
        <time>2018-02-13T11:15:05+01:00</time>
      </trkpt>
      <trkpt lat="48.1143" lon="7.07973">
        <ele>1299</ele>
        <time>2018-02-13T11:15:24+01:00</time>
      </trkpt>
      <trkpt lat="48.11412" lon="7.0796">
        <ele>1300</ele>
        <time>2018-02-13T11:15:46+01:00</time>
      </trkpt>
      <trkpt lat="48.11393" lon="7.07947">
        <ele>1301</ele>
        <time>2018-02-13T11:16:08+01:00</time>
      </trkpt>
      <trkpt lat="48.11386" lon="7.07943">
        <ele>1301</ele>
        <time>2018-02-13T11:16:16+01:00</time>
      </trkpt>
      <trkpt lat="48.11372" lon="7.07936">
        <ele>1301</ele>
        <time>2018-02-13T11:16:33+01:00</time>
      </trkpt>
      <trkpt lat="48.11352" lon="7.07923">
        <ele>1302</ele>
        <time>2018-02-13T11:16:52+01:00</time>
      </trkpt>
      <trkpt lat="48.1135" lon="7.07921">
        <ele>1302</ele>
        <time>2018-02-13T11:17:11+01:00</time>
      </trkpt>
      <trkpt lat="48.11341" lon="7.07916">
        <ele>1303</ele>
        <time>2018-02-13T11:17:36+01:00</time>
      </trkpt>
      <trkpt lat="48.11325" lon="7.07908">
        <ele>1302</ele>
        <time>2018-02-13T11:17:55+01:00</time>
      </trkpt>
      <trkpt lat="48.11324" lon="7.07908">
        <ele>1302</ele>
        <time>2018-02-13T11:17:56+01:00</time>
      </trkpt>
      <trkpt lat="48.11324" lon="7.07907">
        <ele>1302</ele>
        <time>2018-02-13T11:17:57+01:00</time>
      </trkpt>
      <trkpt lat="48.11323" lon="7.07906">
        <ele>1302</ele>
        <time>2018-02-13T11:17:58+01:00</time>
      </trkpt>
      <trkpt lat="48.11321" lon="7.07905">
        <ele>1302</ele>
        <time>2018-02-13T11:18:00+01:00</time>
      </trkpt>
      <trkpt lat="48.11306" lon="7.07898">
        <ele>1301</ele>
        <time>2018-02-13T11:18:20+01:00</time>
      </trkpt>
      <trkpt lat="48.11298" lon="7.07893">
        <ele>1301</ele>
        <time>2018-02-13T11:18:38+01:00</time>
      </trkpt>
      <trkpt lat="48.11294" lon="7.0789">
        <ele>1300</ele>
        <time>2018-02-13T11:19:03+01:00</time>
      </trkpt>
      <trkpt lat="48.11279" lon="7.0788">
        <ele>1299</ele>
        <time>2018-02-13T11:19:25+01:00</time>
      </trkpt>
      <trkpt lat="48.11279" lon="7.07877">
        <ele>1299</ele>
        <time>2018-02-13T11:19:43+01:00</time>
      </trkpt>
      <trkpt lat="48.11281" lon="7.07877">
        <ele>1299</ele>
        <time>2018-02-13T11:20:14+01:00</time>
      </trkpt>
      <trkpt lat="48.11281" lon="7.07879">
        <ele>1299</ele>
        <time>2018-02-13T11:20:37+01:00</time>
      </trkpt>
      <trkpt lat="48.1128" lon="7.07879">
        <ele>1299</ele>
        <time>2018-02-13T11:21:05+01:00</time>
      </trkpt>
      <trkpt lat="48.11281" lon="7.0788">
        <ele>1299</ele>
        <time>2018-02-13T11:21:30+01:00</time>
      </trkpt>
      <trkpt lat="48.11281" lon="7.0788">
        <ele>1299</ele>
        <time>2018-02-13T11:21:56+01:00</time>
      </trkpt>
      <trkpt lat="48.1128" lon="7.07879">
        <ele>1299</ele>
        <time>2018-02-13T11:22:20+01:00</time>
      </trkpt>
      <trkpt lat="48.11282" lon="7.07879">
        <ele>1299</ele>
        <time>2018-02-13T11:22:47+01:00</time>
      </trkpt>
      <trkpt lat="48.11281" lon="7.07879">
        <ele>1299</ele>
        <time>2018-02-13T11:23:15+01:00</time>
      </trkpt>
      <trkpt lat="48.11279" lon="7.07879">
        <ele>1299</ele>
        <time>2018-02-13T11:23:40+01:00</time>
      </trkpt>
      <trkpt lat="48.11281" lon="7.07879">
        <ele>1299</ele>
        <time>2018-02-13T11:24:05+01:00</time>
      </trkpt>
      <trkpt lat="48.1128" lon="7.0788">
        <ele>1299</ele>
        <time>2018-02-13T11:24:33+01:00</time>
      </trkpt>
      <trkpt lat="48.11271" lon="7.07876">
        <ele>1298</ele>
        <time>2018-02-13T11:24:52+01:00</time>
      </trkpt>
      <trkpt lat="48.11251" lon="7.07866">
        <ele>1297</ele>
        <time>2018-02-13T11:25:15+01:00</time>
      </trkpt>
      <trkpt lat="48.11235" lon="7.07858">
        <ele>1295</ele>
        <time>2018-02-13T11:25:32+01:00</time>
      </trkpt>
      <trkpt lat="48.11222" lon="7.0785">
        <ele>1294</ele>
        <time>2018-02-13T11:25:46+01:00</time>
      </trkpt>
      <trkpt lat="48.11206" lon="7.07841">
        <ele>1293</ele>
        <time>2018-02-13T11:26:03+01:00</time>
      </trkpt>
      <trkpt lat="48.11198" lon="7.07836">
        <ele>1293</ele>
        <time>2018-02-13T11:26:11+01:00</time>
      </trkpt>
      <trkpt lat="48.11182" lon="7.07829">
        <ele>1292</ele>
        <time>2018-02-13T11:26:27+01:00</time>
      </trkpt>
      <trkpt lat="48.11163" lon="7.0782">
        <ele>1291</ele>
        <time>2018-02-13T11:26:45+01:00</time>
      </trkpt>
      <trkpt lat="48.11148" lon="7.07815">
        <ele>1290</ele>
        <time>2018-02-13T11:27:00+01:00</time>
      </trkpt>
      <trkpt lat="48.11135" lon="7.0781">
        <ele>1290</ele>
        <time>2018-02-13T11:27:15+01:00</time>
      </trkpt>
      <trkpt lat="48.1112" lon="7.07806">
        <ele>1289</ele>
        <time>2018-02-13T11:27:29+01:00</time>
      </trkpt>
      <trkpt lat="48.11103" lon="7.07799">
        <ele>1289</ele>
        <time>2018-02-13T11:27:45+01:00</time>
      </trkpt>
      <trkpt lat="48.11085" lon="7.07792">
        <ele>1289</ele>
        <time>2018-02-13T11:28:02+01:00</time>
      </trkpt>
      <trkpt lat="48.1107" lon="7.07783">
        <ele>1289</ele>
        <time>2018-02-13T11:28:18+01:00</time>
      </trkpt>
      <trkpt lat="48.11067" lon="7.07781">
        <ele>1289</ele>
        <time>2018-02-13T11:28:21+01:00</time>
      </trkpt>
      <trkpt lat="48.11054" lon="7.07774">
        <ele>1289</ele>
        <time>2018-02-13T11:28:35+01:00</time>
      </trkpt>
      <trkpt lat="48.11038" lon="7.07767">
        <ele>1289</ele>
        <time>2018-02-13T11:28:53+01:00</time>
      </trkpt>
      <trkpt lat="48.11025" lon="7.07759">
        <ele>1289</ele>
        <time>2018-02-13T11:29:12+01:00</time>
      </trkpt>
      <trkpt lat="48.11008" lon="7.0775">
        <ele>1290</ele>
        <time>2018-02-13T11:29:32+01:00</time>
      </trkpt>
      <trkpt lat="48.10993" lon="7.07742">
        <ele>1290</ele>
        <time>2018-02-13T11:29:49+01:00</time>
      </trkpt>
      <trkpt lat="48.10976" lon="7.07734">
        <ele>1291</ele>
        <time>2018-02-13T11:30:09+01:00</time>
      </trkpt>
      <trkpt lat="48.10964" lon="7.07727">
        <ele>1292</ele>
        <time>2018-02-13T11:30:23+01:00</time>
      </trkpt>
      <trkpt lat="48.10948" lon="7.0772">
        <ele>1293</ele>
        <time>2018-02-13T11:30:42+01:00</time>
      </trkpt>
      <trkpt lat="48.10928" lon="7.07711">
        <ele>1294</ele>
        <time>2018-02-13T11:31:06+01:00</time>
      </trkpt>
      <trkpt lat="48.10917" lon="7.07707">
        <ele>1294</ele>
        <time>2018-02-13T11:31:19+01:00</time>
      </trkpt>
      <trkpt lat="48.10902" lon="7.07697">
        <ele>1295</ele>
        <time>2018-02-13T11:31:45+01:00</time>
      </trkpt>
      <trkpt lat="48.1089" lon="7.07687">
        <ele>1295</ele>
        <time>2018-02-13T11:32:07+01:00</time>
      </trkpt>
      <trkpt lat="48.10882" lon="7.07684">
        <ele>1296</ele>
        <time>2018-02-13T11:32:23+01:00</time>
      </trkpt>
      <trkpt lat="48.10881" lon="7.07684">
        <ele>1296</ele>
        <time>2018-02-13T11:32:25+01:00</time>
      </trkpt>
      <trkpt lat="48.1088" lon="7.07683">
        <ele>1296</ele>
        <time>2018-02-13T11:32:26+01:00</time>
      </trkpt>
      <trkpt lat="48.10871" lon="7.07675">
        <ele>1296</ele>
        <time>2018-02-13T11:32:45+01:00</time>
      </trkpt>
      <trkpt lat="48.10857" lon="7.07658">
        <ele>1297</ele>
        <time>2018-02-13T11:33:03+01:00</time>
      </trkpt>
      <trkpt lat="48.1085" lon="7.07648">
        <ele>1297</ele>
        <time>2018-02-13T11:33:13+01:00</time>
      </trkpt>
      <trkpt lat="48.10845" lon="7.07645">
        <ele>1297</ele>
        <time>2018-02-13T11:33:31+01:00</time>
      </trkpt>
      <trkpt lat="48.10843" lon="7.07646">
        <ele>1297</ele>
        <time>2018-02-13T11:33:33+01:00</time>
      </trkpt>
      <trkpt lat="48.10835" lon="7.07648">
        <ele>1297</ele>
        <time>2018-02-13T11:33:49+01:00</time>
      </trkpt>
      <trkpt lat="48.10831" lon="7.07646">
        <ele>1297</ele>
        <time>2018-02-13T11:33:54+01:00</time>
      </trkpt>
      <trkpt lat="48.10828" lon="7.07645">
        <ele>1296</ele>
        <time>2018-02-13T11:33:57+01:00</time>
      </trkpt>
      <trkpt lat="48.10811" lon="7.07632">
        <ele>1292</ele>
        <time>2018-02-13T11:34:16+01:00</time>
      </trkpt>
      <trkpt lat="48.10805" lon="7.07625">
        <ele>1291</ele>
        <time>2018-02-13T11:34:26+01:00</time>
      </trkpt>
      <trkpt lat="48.10791" lon="7.07613">
        <ele>1288</ele>
        <time>2018-02-13T11:34:45+01:00</time>
      </trkpt>
      <trkpt lat="48.10785" lon="7.0761">
        <ele>1287</ele>
        <time>2018-02-13T11:35:01+01:00</time>
      </trkpt>
      <trkpt lat="48.10783" lon="7.07608">
        <ele>1287</ele>
        <time>2018-02-13T11:35:03+01:00</time>
      </trkpt>
      <trkpt lat="48.10779" lon="7.07595">
        <ele>1285</ele>
        <time>2018-02-13T11:35:18+01:00</time>
      </trkpt>
      <trkpt lat="48.10779" lon="7.07584">
        <ele>1285</ele>
        <time>2018-02-13T11:35:35+01:00</time>
      </trkpt>
      <trkpt lat="48.10779" lon="7.07582">
        <ele>1285</ele>
        <time>2018-02-13T11:36:15+01:00</time>
      </trkpt>
      <trkpt lat="48.10779" lon="7.07584">
        <ele>1285</ele>
        <time>2018-02-13T11:36:36+01:00</time>
      </trkpt>
      <trkpt lat="48.10781" lon="7.07582">
        <ele>1285</ele>
        <time>2018-02-13T11:36:56+01:00</time>
      </trkpt>
      <trkpt lat="48.1078" lon="7.07582">
        <ele>1285</ele>
        <time>2018-02-13T11:37:29+01:00</time>
      </trkpt>
      <trkpt lat="48.10779" lon="7.07582">
        <ele>1285</ele>
        <time>2018-02-13T11:37:59+01:00</time>
      </trkpt>
      <trkpt lat="48.10779" lon="7.0758">
        <ele>1284</ele>
        <time>2018-02-13T11:38:18+01:00</time>
      </trkpt>
      <trkpt lat="48.10781" lon="7.07581">
        <ele>1285</ele>
        <time>2018-02-13T11:38:46+01:00</time>
      </trkpt>
      <trkpt lat="48.1078" lon="7.07584">
        <ele>1285</ele>
        <time>2018-02-13T11:39:07+01:00</time>
      </trkpt>
      <trkpt lat="48.10777" lon="7.07587">
        <ele>1285</ele>
        <time>2018-02-13T11:39:27+01:00</time>
      </trkpt>
      <trkpt lat="48.10778" lon="7.07588">
        <ele>1285</ele>
        <time>2018-02-13T11:39:52+01:00</time>
      </trkpt>
      <trkpt lat="48.1078" lon="7.07581">
        <ele>1285</ele>
        <time>2018-02-13T11:40:22+01:00</time>
      </trkpt>
      <trkpt lat="48.10788" lon="7.07571">
        <ele>1284</ele>
        <time>2018-02-13T11:40:43+01:00</time>
      </trkpt>
      <trkpt lat="48.10802" lon="7.07566">
        <ele>1286</ele>
        <time>2018-02-13T11:41:04+01:00</time>
      </trkpt>
      <trkpt lat="48.10809" lon="7.07563">
        <ele>1287</ele>
        <time>2018-02-13T11:41:13+01:00</time>
      </trkpt>
      <trkpt lat="48.10813" lon="7.07561">
        <ele>1287</ele>
        <time>2018-02-13T11:41:16+01:00</time>
      </trkpt>
      <trkpt lat="48.1082" lon="7.07552">
        <ele>1287</ele>
        <time>2018-02-13T11:41:34+01:00</time>
      </trkpt>
      <trkpt lat="48.10821" lon="7.07542">
        <ele>1286</ele>
        <time>2018-02-13T11:42:00+01:00</time>
      </trkpt>
      <trkpt lat="48.10823" lon="7.0752">
        <ele>1283</ele>
        <time>2018-02-13T11:42:16+01:00</time>
      </trkpt>
      <trkpt lat="48.10823" lon="7.07519">
        <ele>1283</ele>
        <time>2018-02-13T11:42:17+01:00</time>
      </trkpt>
      <trkpt lat="48.10824" lon="7.07493">
        <ele>1280</ele>
        <time>2018-02-13T11:42:35+01:00</time>
      </trkpt>
      <trkpt lat="48.10825" lon="7.07464">
        <ele>1278</ele>
        <time>2018-02-13T11:42:54+01:00</time>
      </trkpt>
      <trkpt lat="48.10825" lon="7.07436">
        <ele>1276</ele>
        <time>2018-02-13T11:43:12+01:00</time>
      </trkpt>
      <trkpt lat="48.10827" lon="7.07418">
        <ele>1275</ele>
        <time>2018-02-13T11:43:25+01:00</time>
      </trkpt>
      <trkpt lat="48.10827" lon="7.07414">
        <ele>1275</ele>
        <time>2018-02-13T11:43:27+01:00</time>
      </trkpt>
      <trkpt lat="48.10825" lon="7.07393">
        <ele>1272</ele>
        <time>2018-02-13T11:43:39+01:00</time>
      </trkpt>
      <trkpt lat="48.10822" lon="7.07386">
        <ele>1271</ele>
        <time>2018-02-13T11:43:43+01:00</time>
      </trkpt>
      <trkpt lat="48.10815" lon="7.07363">
        <ele>1266</ele>
        <time>2018-02-13T11:44:01+01:00</time>
      </trkpt>
      <trkpt lat="48.10815" lon="7.07354">
        <ele>1265</ele>
        <time>2018-02-13T11:44:18+01:00</time>
      </trkpt>
      <trkpt lat="48.10815" lon="7.07349">
        <ele>1264</ele>
        <time>2018-02-13T11:44:21+01:00</time>
      </trkpt>
      <trkpt lat="48.10815" lon="7.07346">
        <ele>1264</ele>
        <time>2018-02-13T11:44:23+01:00</time>
      </trkpt>
      <trkpt lat="48.10821" lon="7.07322">
        <ele>1267</ele>
        <time>2018-02-13T11:44:41+01:00</time>
      </trkpt>
      <trkpt lat="48.10819" lon="7.073">
        <ele>1266</ele>
        <time>2018-02-13T11:44:57+01:00</time>
      </trkpt>
      <trkpt lat="48.10819" lon="7.07298">
        <ele>1266</ele>
        <time>2018-02-13T11:45:06+01:00</time>
      </trkpt>
      <trkpt lat="48.10819" lon="7.07298">
        <ele>1266</ele>
        <time>2018-02-13T11:45:09+01:00</time>
      </trkpt>
      <trkpt lat="48.10818" lon="7.07297">
        <ele>1266</ele>
        <time>2018-02-13T11:45:14+01:00</time>
      </trkpt>
      <trkpt lat="48.10818" lon="7.07296">
        <ele>1266</ele>
        <time>2018-02-13T11:45:22+01:00</time>
      </trkpt>
      <trkpt lat="48.10818" lon="7.07296">
        <ele>1266</ele>
        <time>2018-02-13T11:45:23+01:00</time>
      </trkpt>
      <trkpt lat="48.1082" lon="7.07296">
        <ele>1267</ele>
        <time>2018-02-13T11:45:44+01:00</time>
      </trkpt>
      <trkpt lat="48.1082" lon="7.07297">
        <ele>1267</ele>
        <time>2018-02-13T11:45:50+01:00</time>
      </trkpt>
      <trkpt lat="48.10821" lon="7.07292">
        <ele>1268</ele>
        <time>2018-02-13T11:46:08+01:00</time>
      </trkpt>
      <trkpt lat="48.10823" lon="7.07288">
        <ele>1269</ele>
        <time>2018-02-13T11:46:30+01:00</time>
      </trkpt>
      <trkpt lat="48.10826" lon="7.07281">
        <ele>1270</ele>
        <time>2018-02-13T11:46:51+01:00</time>
      </trkpt>
      <trkpt lat="48.10835" lon="7.07266">
        <ele>1273</ele>
        <time>2018-02-13T11:47:12+01:00</time>
      </trkpt>
      <trkpt lat="48.10839" lon="7.07259">
        <ele>1273</ele>
        <time>2018-02-13T11:47:20+01:00</time>
      </trkpt>
      <trkpt lat="48.10847" lon="7.07248">
        <ele>1272</ele>
        <time>2018-02-13T11:47:30+01:00</time>
      </trkpt>
      <trkpt lat="48.10857" lon="7.07231">
        <ele>1273</ele>
        <time>2018-02-13T11:47:46+01:00</time>
      </trkpt>
      <trkpt lat="48.10865" lon="7.07218">
        <ele>1273</ele>
        <time>2018-02-13T11:47:59+01:00</time>
      </trkpt>
      <trkpt lat="48.10866" lon="7.07217">
        <ele>1273</ele>
        <time>2018-02-13T11:48:01+01:00</time>
      </trkpt>
      <trkpt lat="48.10872" lon="7.07194">
        <ele>1274</ele>
        <time>2018-02-13T11:48:18+01:00</time>
      </trkpt>
      <trkpt lat="48.10877" lon="7.07169">
        <ele>1274</ele>
        <time>2018-02-13T11:48:37+01:00</time>
      </trkpt>
      <trkpt lat="48.10882" lon="7.07147">
        <ele>1273</ele>
        <time>2018-02-13T11:48:55+01:00</time>
      </trkpt>
      <trkpt lat="48.10883" lon="7.07129">
        <ele>1273</ele>
        <time>2018-02-13T11:49:11+01:00</time>
      </trkpt>
      <trkpt lat="48.10883" lon="7.07123">
        <ele>1273</ele>
        <time>2018-02-13T11:49:15+01:00</time>
      </trkpt>
      <trkpt lat="48.10884" lon="7.07117">
        <ele>1273</ele>
        <time>2018-02-13T11:49:19+01:00</time>
      </trkpt>
      <trkpt lat="48.10886" lon="7.07093">
        <ele>1272</ele>
        <time>2018-02-13T11:49:36+01:00</time>
      </trkpt>
      <trkpt lat="48.1089" lon="7.07069">
        <ele>1270</ele>
        <time>2018-02-13T11:49:54+01:00</time>
      </trkpt>
      <trkpt lat="48.1089" lon="7.07059">
        <ele>1270</ele>
        <time>2018-02-13T11:50:01+01:00</time>
      </trkpt>
      <trkpt lat="48.1089" lon="7.07038">
        <ele>1268</ele>
        <time>2018-02-13T11:50:19+01:00</time>
      </trkpt>
      <trkpt lat="48.10892" lon="7.07013">
        <ele>1266</ele>
        <time>2018-02-13T11:50:37+01:00</time>
      </trkpt>
      <trkpt lat="48.10893" lon="7.07006">
        <ele>1266</ele>
        <time>2018-02-13T11:50:42+01:00</time>
      </trkpt>
      <trkpt lat="48.10893" lon="7.06976">
        <ele>1264</ele>
        <time>2018-02-13T11:51:00+01:00</time>
      </trkpt>
      <trkpt lat="48.10892" lon="7.06968">
        <ele>1263</ele>
        <time>2018-02-13T11:51:05+01:00</time>
      </trkpt>
      <trkpt lat="48.10895" lon="7.06941">
        <ele>1261</ele>
        <time>2018-02-13T11:51:22+01:00</time>
      </trkpt>
      <trkpt lat="48.10887" lon="7.06917">
        <ele>1261</ele>
        <time>2018-02-13T11:51:35+01:00</time>
      </trkpt>
      <trkpt lat="48.10883" lon="7.06899">
        <ele>1260</ele>
        <time>2018-02-13T11:51:48+01:00</time>
      </trkpt>
      <trkpt lat="48.10886" lon="7.06882">
        <ele>1259</ele>
        <time>2018-02-13T11:52:01+01:00</time>
      </trkpt>
      <trkpt lat="48.10876" lon="7.06861">
        <ele>1259</ele>
        <time>2018-02-13T11:52:14+01:00</time>
      </trkpt>
      <trkpt lat="48.10868" lon="7.06846">
        <ele>1259</ele>
        <time>2018-02-13T11:52:29+01:00</time>
      </trkpt>
      <trkpt lat="48.10863" lon="7.0683">
        <ele>1258</ele>
        <time>2018-02-13T11:52:44+01:00</time>
      </trkpt>
      <trkpt lat="48.10866" lon="7.06825">
        <ele>1257</ele>
        <time>2018-02-13T11:52:51+01:00</time>
      </trkpt>
      <trkpt lat="48.10867" lon="7.06822">
        <ele>1257</ele>
        <time>2018-02-13T11:52:53+01:00</time>
      </trkpt>
      <trkpt lat="48.1088" lon="7.06793">
        <ele>1253</ele>
        <time>2018-02-13T11:53:11+01:00</time>
      </trkpt>
      <trkpt lat="48.10883" lon="7.06782">
        <ele>1252</ele>
        <time>2018-02-13T11:53:24+01:00</time>
      </trkpt>
      <trkpt lat="48.10879" lon="7.06766">
        <ele>1252</ele>
        <time>2018-02-13T11:53:41+01:00</time>
      </trkpt>
      <trkpt lat="48.10881" lon="7.06758">
        <ele>1251</ele>
        <time>2018-02-13T11:53:47+01:00</time>
      </trkpt>
      <trkpt lat="48.1088" lon="7.06736">
        <ele>1249</ele>
        <time>2018-02-13T11:54:05+01:00</time>
      </trkpt>
      <trkpt lat="48.10873" lon="7.06715">
        <ele>1248</ele>
        <time>2018-02-13T11:54:19+01:00</time>
      </trkpt>
      <trkpt lat="48.10873" lon="7.0669">
        <ele>1245</ele>
        <time>2018-02-13T11:54:36+01:00</time>
      </trkpt>
      <trkpt lat="48.10873" lon="7.06676">
        <ele>1244</ele>
        <time>2018-02-13T11:54:46+01:00</time>
      </trkpt>
      <trkpt lat="48.10875" lon="7.06657">
        <ele>1242</ele>
        <time>2018-02-13T11:54:58+01:00</time>
      </trkpt>
      <trkpt lat="48.10874" lon="7.06653">
        <ele>1242</ele>
        <time>2018-02-13T11:55:01+01:00</time>
      </trkpt>
      <trkpt lat="48.10872" lon="7.06646">
        <ele>1242</ele>
        <time>2018-02-13T11:55:06+01:00</time>
      </trkpt>
      <trkpt lat="48.1087" lon="7.0663">
        <ele>1241</ele>
        <time>2018-02-13T11:55:17+01:00</time>
      </trkpt>
      <trkpt lat="48.10865" lon="7.06621">
        <ele>1240</ele>
        <time>2018-02-13T11:55:24+01:00</time>
      </trkpt>
      <trkpt lat="48.10867" lon="7.06615">
        <ele>1240</ele>
        <time>2018-02-13T11:55:28+01:00</time>
      </trkpt>
      <trkpt lat="48.10871" lon="7.06595">
        <ele>1238</ele>
        <time>2018-02-13T11:55:44+01:00</time>
      </trkpt>
      <trkpt lat="48.10872" lon="7.06578">
        <ele>1237</ele>
        <time>2018-02-13T11:55:55+01:00</time>
      </trkpt>
      <trkpt lat="48.10876" lon="7.06567">
        <ele>1236</ele>
        <time>2018-02-13T11:56:05+01:00</time>
      </trkpt>
      <trkpt lat="48.10875" lon="7.06555">
        <ele>1235</ele>
        <time>2018-02-13T11:56:13+01:00</time>
      </trkpt>
      <trkpt lat="48.10873" lon="7.06535">
        <ele>1234</ele>
        <time>2018-02-13T11:56:27+01:00</time>
      </trkpt>
      <trkpt lat="48.10871" lon="7.06511">
        <ele>1232</ele>
        <time>2018-02-13T11:56:45+01:00</time>
      </trkpt>
      <trkpt lat="48.10872" lon="7.06498">
        <ele>1231</ele>
        <time>2018-02-13T11:56:56+01:00</time>
      </trkpt>
      <trkpt lat="48.10871" lon="7.06482">
        <ele>1230</ele>
        <time>2018-02-13T11:57:10+01:00</time>
      </trkpt>
      <trkpt lat="48.1088" lon="7.06464">
        <ele>1227</ele>
        <time>2018-02-13T11:57:34+01:00</time>
      </trkpt>
      <trkpt lat="48.10896" lon="7.06458">
        <ele>1225</ele>
        <time>2018-02-13T11:57:53+01:00</time>
      </trkpt>
      <trkpt lat="48.10902" lon="7.06462">
        <ele>1225</ele>
        <time>2018-02-13T11:58:08+01:00</time>
      </trkpt>
      <trkpt lat="48.10901" lon="7.06462">
        <ele>1225</ele>
        <time>2018-02-13T11:58:09+01:00</time>
      </trkpt>
      <trkpt lat="48.10901" lon="7.06457">
        <ele>1225</ele>
        <time>2018-02-13T11:58:32+01:00</time>
      </trkpt>
      <trkpt lat="48.109" lon="7.06457">
        <ele>1225</ele>
        <time>2018-02-13T11:58:36+01:00</time>
      </trkpt>
      <trkpt lat="48.109" lon="7.06456">
        <ele>1224</ele>
        <time>2018-02-13T11:58:37+01:00</time>
      </trkpt>
      <trkpt lat="48.10875" lon="7.06464">
        <ele>1228</ele>
        <time>2018-02-13T12:54:36+01:00</time>
      </trkpt>
      <trkpt lat="48.10878" lon="7.06427">
        <ele>1224</ele>
        <time>2018-02-13T13:07:04+01:00</time>
      </trkpt>
      <trkpt lat="48.10878" lon="7.06427">
        <ele>1224</ele>
        <time>2018-02-13T13:07:05+01:00</time>
      </trkpt>
      <trkpt lat="48.10882" lon="7.06443">
        <ele>1225</ele>
        <time>2018-02-13T14:08:55+01:00</time>
      </trkpt>
      <trkpt lat="48.10884" lon="7.06443">
        <ele>1225</ele>
        <time>2018-02-13T14:08:56+01:00</time>
      </trkpt>
      <trkpt lat="48.10883" lon="7.06443">
        <ele>1225</ele>
        <time>2018-02-13T14:09:11+01:00</time>
      </trkpt>
      <trkpt lat="48.10884" lon="7.06442">
        <ele>1225</ele>
        <time>2018-02-13T14:09:12+01:00</time>
      </trkpt>
      <trkpt lat="48.10885" lon="7.06441">
        <ele>1225</ele>
        <time>2018-02-13T14:09:14+01:00</time>
      </trkpt>
      <trkpt lat="48.10886" lon="7.0644">
        <ele>1224</ele>
        <time>2018-02-13T14:09:17+01:00</time>
      </trkpt>
      <trkpt lat="48.10889" lon="7.06439">
        <ele>1224</ele>
        <time>2018-02-13T14:09:22+01:00</time>
      </trkpt>
      <trkpt lat="48.1089" lon="7.06438">
        <ele>1224</ele>
        <time>2018-02-13T14:09:23+01:00</time>
      </trkpt>
      <trkpt lat="48.10893" lon="7.06438">
        <ele>1224</ele>
        <time>2018-02-13T14:09:29+01:00</time>
      </trkpt>
      <trkpt lat="48.10898" lon="7.06439">
        <ele>1223</ele>
        <time>2018-02-13T14:09:35+01:00</time>
      </trkpt>
      <trkpt lat="48.10904" lon="7.06444">
        <ele>1223</ele>
        <time>2018-02-13T14:09:44+01:00</time>
      </trkpt>
      <trkpt lat="48.10913" lon="7.06448">
        <ele>1222</ele>
        <time>2018-02-13T14:10:01+01:00</time>
      </trkpt>
      <trkpt lat="48.1092" lon="7.06455">
        <ele>1222</ele>
        <time>2018-02-13T14:10:13+01:00</time>
      </trkpt>
      <trkpt lat="48.10924" lon="7.06457">
        <ele>1222</ele>
        <time>2018-02-13T14:10:17+01:00</time>
      </trkpt>
      <trkpt lat="48.1093" lon="7.06459">
        <ele>1222</ele>
        <time>2018-02-13T14:10:32+01:00</time>
      </trkpt>
      <trkpt lat="48.10951" lon="7.06463">
        <ele>1221</ele>
        <time>2018-02-13T14:10:57+01:00</time>
      </trkpt>
      <trkpt lat="48.10959" lon="7.06466">
        <ele>1221</ele>
        <time>2018-02-13T14:11:06+01:00</time>
      </trkpt>
      <trkpt lat="48.10976" lon="7.06478">
        <ele>1221</ele>
        <time>2018-02-13T14:11:28+01:00</time>
      </trkpt>
      <trkpt lat="48.10994" lon="7.0649">
        <ele>1221</ele>
        <time>2018-02-13T14:11:49+01:00</time>
      </trkpt>
      <trkpt lat="48.11009" lon="7.065">
        <ele>1222</ele>
        <time>2018-02-13T14:12:12+01:00</time>
      </trkpt>
      <trkpt lat="48.1102" lon="7.06502">
        <ele>1221</ele>
        <time>2018-02-13T14:12:30+01:00</time>
      </trkpt>
      <trkpt lat="48.11032" lon="7.0651">
        <ele>1221</ele>
        <time>2018-02-13T14:12:52+01:00</time>
      </trkpt>
      <trkpt lat="48.1104" lon="7.06508">
        <ele>1221</ele>
        <time>2018-02-13T14:13:12+01:00</time>
      </trkpt>
      <trkpt lat="48.1105" lon="7.06499">
        <ele>1220</ele>
        <time>2018-02-13T14:13:32+01:00</time>
      </trkpt>
      <trkpt lat="48.11062" lon="7.06487">
        <ele>1218</ele>
        <time>2018-02-13T14:13:53+01:00</time>
      </trkpt>
      <trkpt lat="48.11069" lon="7.06469">
        <ele>1217</ele>
        <time>2018-02-13T14:14:13+01:00</time>
      </trkpt>
      <trkpt lat="48.11078" lon="7.06466">
        <ele>1216</ele>
        <time>2018-02-13T14:14:34+01:00</time>
      </trkpt>
      <trkpt lat="48.11085" lon="7.06458">
        <ele>1215</ele>
        <time>2018-02-13T14:14:58+01:00</time>
      </trkpt>
      <trkpt lat="48.11096" lon="7.0645">
        <ele>1215</ele>
        <time>2018-02-13T14:15:19+01:00</time>
      </trkpt>
      <trkpt lat="48.11109" lon="7.0645">
        <ele>1215</ele>
        <time>2018-02-13T14:15:39+01:00</time>
      </trkpt>
      <trkpt lat="48.11117" lon="7.06458">
        <ele>1215</ele>
        <time>2018-02-13T14:15:54+01:00</time>
      </trkpt>
      <trkpt lat="48.11128" lon="7.06459">
        <ele>1215</ele>
        <time>2018-02-13T14:16:19+01:00</time>
      </trkpt>
      <trkpt lat="48.11139" lon="7.06458">
        <ele>1214</ele>
        <time>2018-02-13T14:16:46+01:00</time>
      </trkpt>
      <trkpt lat="48.11139" lon="7.06462">
        <ele>1215</ele>
        <time>2018-02-13T14:17:12+01:00</time>
      </trkpt>
      <trkpt lat="48.11139" lon="7.0646">
        <ele>1215</ele>
        <time>2018-02-13T14:17:41+01:00</time>
      </trkpt>
      <trkpt lat="48.11142" lon="7.06461">
        <ele>1215</ele>
        <time>2018-02-13T14:18:02+01:00</time>
      </trkpt>
      <trkpt lat="48.11147" lon="7.06457">
        <ele>1214</ele>
        <time>2018-02-13T14:18:33+01:00</time>
      </trkpt>
      <trkpt lat="48.11148" lon="7.06458">
        <ele>1214</ele>
        <time>2018-02-13T14:19:00+01:00</time>
      </trkpt>
      <trkpt lat="48.11147" lon="7.06458">
        <ele>1214</ele>
        <time>2018-02-13T14:19:31+01:00</time>
      </trkpt>
      <trkpt lat="48.1115" lon="7.06455">
        <ele>1214</ele>
        <time>2018-02-13T14:19:57+01:00</time>
      </trkpt>
      <trkpt lat="48.11155" lon="7.06457">
        <ele>1214</ele>
        <time>2018-02-13T14:20:21+01:00</time>
      </trkpt>
      <trkpt lat="48.11157" lon="7.06451">
        <ele>1214</ele>
        <time>2018-02-13T14:20:51+01:00</time>
      </trkpt>
      <trkpt lat="48.11158" lon="7.06449">
        <ele>1213</ele>
        <time>2018-02-13T14:21:19+01:00</time>
      </trkpt>
      <trkpt lat="48.11161" lon="7.06451">
        <ele>1214</ele>
        <time>2018-02-13T14:21:45+01:00</time>
      </trkpt>
      <trkpt lat="48.11155" lon="7.06453">
        <ele>1214</ele>
        <time>2018-02-13T14:22:09+01:00</time>
      </trkpt>
      <trkpt lat="48.11155" lon="7.06456">
        <ele>1214</ele>
        <time>2018-02-13T14:22:33+01:00</time>
      </trkpt>
      <trkpt lat="48.11166" lon="7.06452">
        <ele>1214</ele>
        <time>2018-02-13T14:22:58+01:00</time>
      </trkpt>
      <trkpt lat="48.11177" lon="7.06433">
        <ele>1212</ele>
        <time>2018-02-13T14:23:17+01:00</time>
      </trkpt>
      <trkpt lat="48.1118" lon="7.06427">
        <ele>1212</ele>
        <time>2018-02-13T14:23:25+01:00</time>
      </trkpt>
      <trkpt lat="48.1119" lon="7.06404">
        <ele>1211</ele>
        <time>2018-02-13T14:23:46+01:00</time>
      </trkpt>
      <trkpt lat="48.11198" lon="7.06371">
        <ele>1210</ele>
        <time>2018-02-13T14:24:11+01:00</time>
      </trkpt>
      <trkpt lat="48.11202" lon="7.0637">
        <ele>1210</ele>
        <time>2018-02-13T14:24:36+01:00</time>
      </trkpt>
      <trkpt lat="48.11204" lon="7.06375">
        <ele>1210</ele>
        <time>2018-02-13T14:24:57+01:00</time>
      </trkpt>
      <trkpt lat="48.11201" lon="7.06384">
        <ele>1211</ele>
        <time>2018-02-13T14:25:09+01:00</time>
      </trkpt>
      <trkpt lat="48.11201" lon="7.06387">
        <ele>1211</ele>
        <time>2018-02-13T14:25:39+01:00</time>
      </trkpt>
      <trkpt lat="48.11203" lon="7.06382">
        <ele>1211</ele>
        <time>2018-02-13T14:26:08+01:00</time>
      </trkpt>
      <trkpt lat="48.11203" lon="7.06381">
        <ele>1211</ele>
        <time>2018-02-13T14:26:36+01:00</time>
      </trkpt>
      <trkpt lat="48.11201" lon="7.0638">
        <ele>1211</ele>
        <time>2018-02-13T14:27:00+01:00</time>
      </trkpt>
      <trkpt lat="48.112" lon="7.06383">
        <ele>1211</ele>
        <time>2018-02-13T14:27:21+01:00</time>
      </trkpt>
      <trkpt lat="48.11201" lon="7.06385">
        <ele>1211</ele>
        <time>2018-02-13T14:27:56+01:00</time>
      </trkpt>
      <trkpt lat="48.11205" lon="7.06375">
        <ele>1210</ele>
        <time>2018-02-13T14:28:21+01:00</time>
      </trkpt>
      <trkpt lat="48.11207" lon="7.06358">
        <ele>1210</ele>
        <time>2018-02-13T14:28:38+01:00</time>
      </trkpt>
      <trkpt lat="48.11214" lon="7.06346">
        <ele>1210</ele>
        <time>2018-02-13T14:28:57+01:00</time>
      </trkpt>
      <trkpt lat="48.1122" lon="7.06332">
        <ele>1209</ele>
        <time>2018-02-13T14:29:16+01:00</time>
      </trkpt>
      <trkpt lat="48.11222" lon="7.06317">
        <ele>1208</ele>
        <time>2018-02-13T14:29:30+01:00</time>
      </trkpt>
      <trkpt lat="48.1122" lon="7.06293">
        <ele>1207</ele>
        <time>2018-02-13T14:29:50+01:00</time>
      </trkpt>
      <trkpt lat="48.11217" lon="7.06279">
        <ele>1206</ele>
        <time>2018-02-13T14:30:04+01:00</time>
      </trkpt>
      <trkpt lat="48.11225" lon="7.06262">
        <ele>1206</ele>
        <time>2018-02-13T14:30:23+01:00</time>
      </trkpt>
      <trkpt lat="48.11228" lon="7.06229">
        <ele>1204</ele>
        <time>2018-02-13T14:30:49+01:00</time>
      </trkpt>
      <trkpt lat="48.1124" lon="7.06204">
        <ele>1203</ele>
        <time>2018-02-13T14:31:09+01:00</time>
      </trkpt>
      <trkpt lat="48.11244" lon="7.06195">
        <ele>1203</ele>
        <time>2018-02-13T14:31:15+01:00</time>
      </trkpt>
      <trkpt lat="48.11244" lon="7.06165">
        <ele>1202</ele>
        <time>2018-02-13T14:31:34+01:00</time>
      </trkpt>
      <trkpt lat="48.11244" lon="7.06154">
        <ele>1201</ele>
        <time>2018-02-13T14:31:42+01:00</time>
      </trkpt>
      <trkpt lat="48.11245" lon="7.0614">
        <ele>1200</ele>
        <time>2018-02-13T14:31:52+01:00</time>
      </trkpt>
      <trkpt lat="48.11244" lon="7.06121">
        <ele>1199</ele>
        <time>2018-02-13T14:32:05+01:00</time>
      </trkpt>
      <trkpt lat="48.11243" lon="7.06093">
        <ele>1198</ele>
        <time>2018-02-13T14:32:24+01:00</time>
      </trkpt>
      <trkpt lat="48.11242" lon="7.06072">
        <ele>1198</ele>
        <time>2018-02-13T14:32:39+01:00</time>
      </trkpt>
      <trkpt lat="48.11242" lon="7.06065">
        <ele>1198</ele>
        <time>2018-02-13T14:32:44+01:00</time>
      </trkpt>
      <trkpt lat="48.11243" lon="7.06042">
        <ele>1198</ele>
        <time>2018-02-13T14:33:00+01:00</time>
      </trkpt>
      <trkpt lat="48.11244" lon="7.06023">
        <ele>1198</ele>
        <time>2018-02-13T14:33:13+01:00</time>
      </trkpt>
      <trkpt lat="48.11245" lon="7.05998">
        <ele>1198</ele>
        <time>2018-02-13T14:33:31+01:00</time>
      </trkpt>
      <trkpt lat="48.11245" lon="7.05992">
        <ele>1198</ele>
        <time>2018-02-13T14:33:35+01:00</time>
      </trkpt>
      <trkpt lat="48.11246" lon="7.0598">
        <ele>1199</ele>
        <time>2018-02-13T14:33:44+01:00</time>
      </trkpt>
      <trkpt lat="48.11247" lon="7.0596">
        <ele>1199</ele>
        <time>2018-02-13T14:33:57+01:00</time>
      </trkpt>
      <trkpt lat="48.11242" lon="7.05937">
        <ele>1198</ele>
        <time>2018-02-13T14:34:14+01:00</time>
      </trkpt>
      <trkpt lat="48.11239" lon="7.05912">
        <ele>1197</ele>
        <time>2018-02-13T14:34:33+01:00</time>
      </trkpt>
      <trkpt lat="48.11239" lon="7.05905">
        <ele>1197</ele>
        <time>2018-02-13T14:34:39+01:00</time>
      </trkpt>
      <trkpt lat="48.11241" lon="7.05898">
        <ele>1197</ele>
        <time>2018-02-13T14:35:02+01:00</time>
      </trkpt>
      <trkpt lat="48.11244" lon="7.05904">
        <ele>1198</ele>
        <time>2018-02-13T14:35:35+01:00</time>
      </trkpt>
      <trkpt lat="48.11243" lon="7.05903">
        <ele>1198</ele>
        <time>2018-02-13T14:35:53+01:00</time>
      </trkpt>
      <trkpt lat="48.11239" lon="7.05885">
        <ele>1197</ele>
        <time>2018-02-13T14:36:19+01:00</time>
      </trkpt>
      <trkpt lat="48.1124" lon="7.05859">
        <ele>1196</ele>
        <time>2018-02-13T14:36:36+01:00</time>
      </trkpt>
      <trkpt lat="48.1124" lon="7.05848">
        <ele>1196</ele>
        <time>2018-02-13T14:37:01+01:00</time>
      </trkpt>
      <trkpt lat="48.11238" lon="7.05843">
        <ele>1195</ele>
        <time>2018-02-13T14:37:34+01:00</time>
      </trkpt>
      <trkpt lat="48.11237" lon="7.05833">
        <ele>1195</ele>
        <time>2018-02-13T14:38:01+01:00</time>
      </trkpt>
      <trkpt lat="48.1123" lon="7.05819">
        <ele>1192</ele>
        <time>2018-02-13T14:38:19+01:00</time>
      </trkpt>
      <trkpt lat="48.11216" lon="7.05793">
        <ele>1187</ele>
        <time>2018-02-13T14:38:47+01:00</time>
      </trkpt>
      <trkpt lat="48.11207" lon="7.05783">
        <ele>1185</ele>
        <time>2018-02-13T14:39:01+01:00</time>
      </trkpt>
      <trkpt lat="48.11206" lon="7.05778">
        <ele>1184</ele>
        <time>2018-02-13T14:39:06+01:00</time>
      </trkpt>
      <trkpt lat="48.11202" lon="7.05753">
        <ele>1181</ele>
        <time>2018-02-13T14:39:27+01:00</time>
      </trkpt>
      <trkpt lat="48.11207" lon="7.0573">
        <ele>1178</ele>
        <time>2018-02-13T14:39:47+01:00</time>
      </trkpt>
      <trkpt lat="48.11209" lon="7.05701">
        <ele>1174</ele>
        <time>2018-02-13T14:40:11+01:00</time>
      </trkpt>
      <trkpt lat="48.11218" lon="7.05688">
        <ele>1173</ele>
        <time>2018-02-13T14:40:33+01:00</time>
      </trkpt>
      <trkpt lat="48.11228" lon="7.05681">
        <ele>1172</ele>
        <time>2018-02-13T14:40:45+01:00</time>
      </trkpt>
      <trkpt lat="48.11244" lon="7.05671">
        <ele>1172</ele>
        <time>2018-02-13T14:41:05+01:00</time>
      </trkpt>
      <trkpt lat="48.11252" lon="7.05655">
        <ele>1169</ele>
        <time>2018-02-13T14:41:24+01:00</time>
      </trkpt>
      <trkpt lat="48.11249" lon="7.05645">
        <ele>1166</ele>
        <time>2018-02-13T14:41:36+01:00</time>
      </trkpt>
      <trkpt lat="48.11248" lon="7.05631">
        <ele>1163</ele>
        <time>2018-02-13T14:41:52+01:00</time>
      </trkpt>
      <trkpt lat="48.11236" lon="7.05623">
        <ele>1160</ele>
        <time>2018-02-13T14:42:15+01:00</time>
      </trkpt>
      <trkpt lat="48.1123" lon="7.05614">
        <ele>1157</ele>
        <time>2018-02-13T14:42:31+01:00</time>
      </trkpt>
      <trkpt lat="48.11229" lon="7.05603">
        <ele>1154</ele>
        <time>2018-02-13T14:42:45+01:00</time>
      </trkpt>
      <trkpt lat="48.1123" lon="7.056">
        <ele>1153</ele>
        <time>2018-02-13T14:42:49+01:00</time>
      </trkpt>
      <trkpt lat="48.11233" lon="7.05596">
        <ele>1153</ele>
        <time>2018-02-13T14:42:57+01:00</time>
      </trkpt>
      <trkpt lat="48.11244" lon="7.05582">
        <ele>1150</ele>
        <time>2018-02-13T14:43:17+01:00</time>
      </trkpt>
      <trkpt lat="48.11246" lon="7.05577">
        <ele>1149</ele>
        <time>2018-02-13T14:43:23+01:00</time>
      </trkpt>
      <trkpt lat="48.11255" lon="7.05571">
        <ele>1148</ele>
        <time>2018-02-13T14:43:39+01:00</time>
      </trkpt>
      <trkpt lat="48.11266" lon="7.05561">
        <ele>1146</ele>
        <time>2018-02-13T14:43:55+01:00</time>
      </trkpt>
      <trkpt lat="48.11267" lon="7.05555">
        <ele>1144</ele>
        <time>2018-02-13T14:44:02+01:00</time>
      </trkpt>
      <trkpt lat="48.11255" lon="7.05543">
        <ele>1141</ele>
        <time>2018-02-13T14:44:23+01:00</time>
      </trkpt>
      <trkpt lat="48.11242" lon="7.0554">
        <ele>1139</ele>
        <time>2018-02-13T14:44:44+01:00</time>
      </trkpt>
      <trkpt lat="48.11239" lon="7.05534">
        <ele>1137</ele>
        <time>2018-02-13T14:45:03+01:00</time>
      </trkpt>
      <trkpt lat="48.11245" lon="7.05531">
        <ele>1137</ele>
        <time>2018-02-13T14:45:26+01:00</time>
      </trkpt>
      <trkpt lat="48.11246" lon="7.05533">
        <ele>1137</ele>
        <time>2018-02-13T14:45:52+01:00</time>
      </trkpt>
      <trkpt lat="48.11248" lon="7.05532">
        <ele>1137</ele>
        <time>2018-02-13T14:46:24+01:00</time>
      </trkpt>
      <trkpt lat="48.11241" lon="7.05533">
        <ele>1137</ele>
        <time>2018-02-13T14:46:47+01:00</time>
      </trkpt>
      <trkpt lat="48.11247" lon="7.05525">
        <ele>1135</ele>
        <time>2018-02-13T14:47:10+01:00</time>
      </trkpt>
      <trkpt lat="48.11245" lon="7.05524">
        <ele>1135</ele>
        <time>2018-02-13T14:47:39+01:00</time>
      </trkpt>
      <trkpt lat="48.11254" lon="7.05516">
        <ele>1133</ele>
        <time>2018-02-13T14:47:58+01:00</time>
      </trkpt>
      <trkpt lat="48.1125" lon="7.05522">
        <ele>1135</ele>
        <time>2018-02-13T14:48:18+01:00</time>
      </trkpt>
      <trkpt lat="48.11251" lon="7.05532">
        <ele>1138</ele>
        <time>2018-02-13T14:48:43+01:00</time>
      </trkpt>
      <trkpt lat="48.11253" lon="7.05531">
        <ele>1137</ele>
        <time>2018-02-13T14:48:46+01:00</time>
      </trkpt>
      <trkpt lat="48.11273" lon="7.05524">
        <ele>1136</ele>
        <time>2018-02-13T14:49:09+01:00</time>
      </trkpt>
      <trkpt lat="48.11295" lon="7.0552">
        <ele>1135</ele>
        <time>2018-02-13T14:49:31+01:00</time>
      </trkpt>
      <trkpt lat="48.11313" lon="7.05524">
        <ele>1137</ele>
        <time>2018-02-13T14:49:50+01:00</time>
      </trkpt>
      <trkpt lat="48.11324" lon="7.05523">
        <ele>1137</ele>
        <time>2018-02-13T14:50:03+01:00</time>
      </trkpt>
      <trkpt lat="48.11346" lon="7.05534">
        <ele>1138</ele>
        <time>2018-02-13T14:50:28+01:00</time>
      </trkpt>
      <trkpt lat="48.11362" lon="7.05544">
        <ele>1137</ele>
        <time>2018-02-13T14:50:50+01:00</time>
      </trkpt>
      <trkpt lat="48.1138" lon="7.05561">
        <ele>1139</ele>
        <time>2018-02-13T14:51:13+01:00</time>
      </trkpt>
      <trkpt lat="48.11398" lon="7.05579">
        <ele>1141</ele>
        <time>2018-02-13T14:51:36+01:00</time>
      </trkpt>
      <trkpt lat="48.11417" lon="7.05596">
        <ele>1141</ele>
        <time>2018-02-13T14:52:00+01:00</time>
      </trkpt>
      <trkpt lat="48.11433" lon="7.05609">
        <ele>1140</ele>
        <time>2018-02-13T14:52:21+01:00</time>
      </trkpt>
      <trkpt lat="48.1145" lon="7.05624">
        <ele>1140</ele>
        <time>2018-02-13T14:52:42+01:00</time>
      </trkpt>
      <trkpt lat="48.1147" lon="7.05641">
        <ele>1139</ele>
        <time>2018-02-13T14:53:02+01:00</time>
      </trkpt>
      <trkpt lat="48.11488" lon="7.0566">
        <ele>1139</ele>
        <time>2018-02-13T14:53:24+01:00</time>
      </trkpt>
      <trkpt lat="48.11489" lon="7.05661">
        <ele>1139</ele>
        <time>2018-02-13T14:53:25+01:00</time>
      </trkpt>
      <trkpt lat="48.11506" lon="7.05676">
        <ele>1139</ele>
        <time>2018-02-13T14:53:44+01:00</time>
      </trkpt>
      <trkpt lat="48.11518" lon="7.0569">
        <ele>1139</ele>
        <time>2018-02-13T14:54:03+01:00</time>
      </trkpt>
      <trkpt lat="48.11537" lon="7.0571">
        <ele>1138</ele>
        <time>2018-02-13T14:54:25+01:00</time>
      </trkpt>
      <trkpt lat="48.11551" lon="7.05721">
        <ele>1137</ele>
        <time>2018-02-13T14:54:45+01:00</time>
      </trkpt>
      <trkpt lat="48.11563" lon="7.0573">
        <ele>1136</ele>
        <time>2018-02-13T14:55:05+01:00</time>
      </trkpt>
      <trkpt lat="48.11577" lon="7.05744">
        <ele>1135</ele>
        <time>2018-02-13T14:55:25+01:00</time>
      </trkpt>
      <trkpt lat="48.11592" lon="7.05755">
        <ele>1135</ele>
        <time>2018-02-13T14:55:44+01:00</time>
      </trkpt>
      <trkpt lat="48.11595" lon="7.05756">
        <ele>1135</ele>
        <time>2018-02-13T14:55:49+01:00</time>
      </trkpt>
      <trkpt lat="48.11614" lon="7.05771">
        <ele>1135</ele>
        <time>2018-02-13T14:56:13+01:00</time>
      </trkpt>
      <trkpt lat="48.11633" lon="7.05788">
        <ele>1136</ele>
        <time>2018-02-13T14:56:34+01:00</time>
      </trkpt>
      <trkpt lat="48.11651" lon="7.05799">
        <ele>1135</ele>
        <time>2018-02-13T14:56:56+01:00</time>
      </trkpt>
      <trkpt lat="48.11665" lon="7.05809">
        <ele>1135</ele>
        <time>2018-02-13T14:57:16+01:00</time>
      </trkpt>
      <trkpt lat="48.11684" lon="7.05825">
        <ele>1135</ele>
        <time>2018-02-13T14:57:39+01:00</time>
      </trkpt>
      <trkpt lat="48.11703" lon="7.05838">
        <ele>1134</ele>
        <time>2018-02-13T14:58:02+01:00</time>
      </trkpt>
      <trkpt lat="48.11722" lon="7.05855">
        <ele>1134</ele>
        <time>2018-02-13T14:58:24+01:00</time>
      </trkpt>
      <trkpt lat="48.11738" lon="7.05873">
        <ele>1134</ele>
        <time>2018-02-13T14:58:45+01:00</time>
      </trkpt>
      <trkpt lat="48.11751" lon="7.05891">
        <ele>1135</ele>
        <time>2018-02-13T14:59:06+01:00</time>
      </trkpt>
      <trkpt lat="48.11768" lon="7.05913">
        <ele>1136</ele>
        <time>2018-02-13T14:59:28+01:00</time>
      </trkpt>
      <trkpt lat="48.11783" lon="7.05935">
        <ele>1137</ele>
        <time>2018-02-13T14:59:51+01:00</time>
      </trkpt>
      <trkpt lat="48.11801" lon="7.05961">
        <ele>1138</ele>
        <time>2018-02-13T15:00:17+01:00</time>
      </trkpt>
      <trkpt lat="48.11816" lon="7.0598">
        <ele>1138</ele>
        <time>2018-02-13T15:00:37+01:00</time>
      </trkpt>
      <trkpt lat="48.11833" lon="7.06002">
        <ele>1138</ele>
        <time>2018-02-13T15:01:01+01:00</time>
      </trkpt>
      <trkpt lat="48.11845" lon="7.06019">
        <ele>1139</ele>
        <time>2018-02-13T15:01:20+01:00</time>
      </trkpt>
      <trkpt lat="48.11861" lon="7.06033">
        <ele>1138</ele>
        <time>2018-02-13T15:01:41+01:00</time>
      </trkpt>
      <trkpt lat="48.11872" lon="7.06047">
        <ele>1138</ele>
        <time>2018-02-13T15:01:59+01:00</time>
      </trkpt>
      <trkpt lat="48.11892" lon="7.06063">
        <ele>1136</ele>
        <time>2018-02-13T15:02:24+01:00</time>
      </trkpt>
      <trkpt lat="48.119" lon="7.06066">
        <ele>1134</ele>
        <time>2018-02-13T15:02:43+01:00</time>
      </trkpt>
      <trkpt lat="48.11902" lon="7.06072">
        <ele>1135</ele>
        <time>2018-02-13T15:03:11+01:00</time>
      </trkpt>
      <trkpt lat="48.11905" lon="7.06071">
        <ele>1134</ele>
        <time>2018-02-13T15:03:35+01:00</time>
      </trkpt>
      <trkpt lat="48.11905" lon="7.06072">
        <ele>1134</ele>
        <time>2018-02-13T15:03:49+01:00</time>
      </trkpt>
      <trkpt lat="48.11905" lon="7.06072">
        <ele>1134</ele>
        <time>2018-02-13T15:03:50+01:00</time>
      </trkpt>
      <trkpt lat="48.11904" lon="7.06072">
        <ele>1134</ele>
        <time>2018-02-13T15:04:03+01:00</time>
      </trkpt>
      <trkpt lat="48.11904" lon="7.06072">
        <ele>1134</ele>
        <time>2018-02-13T15:04:04+01:00</time>
      </trkpt>
      <trkpt lat="48.11906" lon="7.06073">
        <ele>1134</ele>
        <time>2018-02-13T15:04:24+01:00</time>
      </trkpt>
      <trkpt lat="48.11907" lon="7.06073">
        <ele>1134</ele>
        <time>2018-02-13T15:04:40+01:00</time>
      </trkpt>
      <trkpt lat="48.11916" lon="7.06087">
        <ele>1134</ele>
        <time>2018-02-13T15:04:55+01:00</time>
      </trkpt>
      <trkpt lat="48.11928" lon="7.0611">
        <ele>1136</ele>
        <time>2018-02-13T15:05:16+01:00</time>
      </trkpt>
      <trkpt lat="48.11929" lon="7.06111">
        <ele>1137</ele>
        <time>2018-02-13T15:05:17+01:00</time>
      </trkpt>
      <trkpt lat="48.11933" lon="7.06117">
        <ele>1137</ele>
        <time>2018-02-13T15:05:23+01:00</time>
      </trkpt>
      <trkpt lat="48.11934" lon="7.06118">
        <ele>1137</ele>
        <time>2018-02-13T15:05:24+01:00</time>
      </trkpt>
      <trkpt lat="48.11942" lon="7.06129">
        <ele>1137</ele>
        <time>2018-02-13T15:05:37+01:00</time>
      </trkpt>
      <trkpt lat="48.11957" lon="7.06144">
        <ele>1137</ele>
        <time>2018-02-13T15:05:59+01:00</time>
      </trkpt>
      <trkpt lat="48.11972" lon="7.0616">
        <ele>1136</ele>
        <time>2018-02-13T15:06:19+01:00</time>
      </trkpt>
      <trkpt lat="48.11974" lon="7.06162">
        <ele>1136</ele>
        <time>2018-02-13T15:06:22+01:00</time>
      </trkpt>
      <trkpt lat="48.11985" lon="7.06176">
        <ele>1135</ele>
        <time>2018-02-13T15:06:37+01:00</time>
      </trkpt>
      <trkpt lat="48.11997" lon="7.06195">
        <ele>1136</ele>
        <time>2018-02-13T15:06:58+01:00</time>
      </trkpt>
      <trkpt lat="48.12011" lon="7.06211">
        <ele>1136</ele>
        <time>2018-02-13T15:07:16+01:00</time>
      </trkpt>
      <trkpt lat="48.12023" lon="7.06233">
        <ele>1138</ele>
        <time>2018-02-13T15:07:40+01:00</time>
      </trkpt>
      <trkpt lat="48.12034" lon="7.06243">
        <ele>1138</ele>
        <time>2018-02-13T15:07:55+01:00</time>
      </trkpt>
      <trkpt lat="48.12044" lon="7.06247">
        <ele>1136</ele>
        <time>2018-02-13T15:08:21+01:00</time>
      </trkpt>
      <trkpt lat="48.12051" lon="7.06251">
        <ele>1136</ele>
        <time>2018-02-13T15:08:43+01:00</time>
      </trkpt>
      <trkpt lat="48.12048" lon="7.06251">
        <ele>1136</ele>
        <time>2018-02-13T15:09:15+01:00</time>
      </trkpt>
      <trkpt lat="48.12046" lon="7.06256">
        <ele>1138</ele>
        <time>2018-02-13T15:09:47+01:00</time>
      </trkpt>
      <trkpt lat="48.12047" lon="7.06247">
        <ele>1136</ele>
        <time>2018-02-13T15:10:15+01:00</time>
      </trkpt>
      <trkpt lat="48.12042" lon="7.06253">
        <ele>1138</ele>
        <time>2018-02-13T15:10:47+01:00</time>
      </trkpt>
      <trkpt lat="48.12042" lon="7.06252">
        <ele>1138</ele>
        <time>2018-02-13T15:11:17+01:00</time>
      </trkpt>
      <trkpt lat="48.12044" lon="7.06251">
        <ele>1137</ele>
        <time>2018-02-13T15:11:42+01:00</time>
      </trkpt>
      <trkpt lat="48.12044" lon="7.06253">
        <ele>1137</ele>
        <time>2018-02-13T15:12:11+01:00</time>
      </trkpt>
      <trkpt lat="48.12052" lon="7.06256">
        <ele>1137</ele>
        <time>2018-02-13T15:12:39+01:00</time>
      </trkpt>
      <trkpt lat="48.12062" lon="7.0626">
        <ele>1135</ele>
        <time>2018-02-13T15:13:06+01:00</time>
      </trkpt>
      <trkpt lat="48.12064" lon="7.06261">
        <ele>1135</ele>
        <time>2018-02-13T15:13:10+01:00</time>
      </trkpt>
      <trkpt lat="48.12075" lon="7.06268">
        <ele>1135</ele>
        <time>2018-02-13T15:13:31+01:00</time>
      </trkpt>
      <trkpt lat="48.12076" lon="7.0627">
        <ele>1135</ele>
        <time>2018-02-13T15:13:33+01:00</time>
      </trkpt>
      <trkpt lat="48.12089" lon="7.06277">
        <ele>1135</ele>
        <time>2018-02-13T15:13:46+01:00</time>
      </trkpt>
      <trkpt lat="48.1209" lon="7.06278">
        <ele>1135</ele>
        <time>2018-02-13T15:13:49+01:00</time>
      </trkpt>
      <trkpt lat="48.12082" lon="7.06277">
        <ele>1135</ele>
        <time>2018-02-13T15:14:14+01:00</time>
      </trkpt>
      <trkpt lat="48.12081" lon="7.06277">
        <ele>1135</ele>
        <time>2018-02-13T15:14:43+01:00</time>
      </trkpt>
      <trkpt lat="48.12082" lon="7.06277">
        <ele>1135</ele>
        <time>2018-02-13T15:15:15+01:00</time>
      </trkpt>
      <trkpt lat="48.1208" lon="7.06281">
        <ele>1136</ele>
        <time>2018-02-13T15:15:28+01:00</time>
      </trkpt>
      <trkpt lat="48.12098" lon="7.06287">
        <ele>1136</ele>
        <time>2018-02-13T15:15:51+01:00</time>
      </trkpt>
      <trkpt lat="48.12112" lon="7.0629">
        <ele>1136</ele>
        <time>2018-02-13T15:16:12+01:00</time>
      </trkpt>
      <trkpt lat="48.12118" lon="7.06292">
        <ele>1137</ele>
        <time>2018-02-13T15:16:19+01:00</time>
      </trkpt>
      <trkpt lat="48.12135" lon="7.06297">
        <ele>1137</ele>
        <time>2018-02-13T15:16:39+01:00</time>
      </trkpt>
      <trkpt lat="48.12156" lon="7.06302">
        <ele>1137</ele>
        <time>2018-02-13T15:17:03+01:00</time>
      </trkpt>
      <trkpt lat="48.12175" lon="7.06305">
        <ele>1137</ele>
        <time>2018-02-13T15:17:25+01:00</time>
      </trkpt>
      <trkpt lat="48.12198" lon="7.06313">
        <ele>1136</ele>
        <time>2018-02-13T15:17:49+01:00</time>
      </trkpt>
      <trkpt lat="48.12216" lon="7.06322">
        <ele>1136</ele>
        <time>2018-02-13T15:18:10+01:00</time>
      </trkpt>
      <trkpt lat="48.12219" lon="7.06323">
        <ele>1136</ele>
        <time>2018-02-13T15:18:15+01:00</time>
      </trkpt>
      <trkpt lat="48.12236" lon="7.06343">
        <ele>1138</ele>
        <time>2018-02-13T15:18:39+01:00</time>
      </trkpt>
      <trkpt lat="48.12243" lon="7.06362">
        <ele>1141</ele>
        <time>2018-02-13T15:18:59+01:00</time>
      </trkpt>
      <trkpt lat="48.12254" lon="7.06387">
        <ele>1143</ele>
        <time>2018-02-13T15:19:22+01:00</time>
      </trkpt>
      <trkpt lat="48.12258" lon="7.06413">
        <ele>1146</ele>
        <time>2018-02-13T15:19:43+01:00</time>
      </trkpt>
      <trkpt lat="48.12263" lon="7.06438">
        <ele>1147</ele>
        <time>2018-02-13T15:20:05+01:00</time>
      </trkpt>
      <trkpt lat="48.12269" lon="7.06467">
        <ele>1149</ele>
        <time>2018-02-13T15:20:27+01:00</time>
      </trkpt>
      <trkpt lat="48.1227" lon="7.06482">
        <ele>1150</ele>
        <time>2018-02-13T15:20:49+01:00</time>
      </trkpt>
      <trkpt lat="48.12275" lon="7.065">
        <ele>1151</ele>
        <time>2018-02-13T15:21:10+01:00</time>
      </trkpt>
      <trkpt lat="48.12275" lon="7.06519">
        <ele>1152</ele>
        <time>2018-02-13T15:21:30+01:00</time>
      </trkpt>
      <trkpt lat="48.12279" lon="7.06512">
        <ele>1150</ele>
        <time>2018-02-13T15:22:00+01:00</time>
      </trkpt>
      <trkpt lat="48.12276" lon="7.06513">
        <ele>1151</ele>
        <time>2018-02-13T15:22:30+01:00</time>
      </trkpt>
      <trkpt lat="48.12278" lon="7.06517">
        <ele>1151</ele>
        <time>2018-02-13T15:23:00+01:00</time>
      </trkpt>
      <trkpt lat="48.12276" lon="7.06525">
        <ele>1152</ele>
        <time>2018-02-13T15:23:22+01:00</time>
      </trkpt>
      <trkpt lat="48.12277" lon="7.06526">
        <ele>1152</ele>
        <time>2018-02-13T15:23:23+01:00</time>
      </trkpt>
      <trkpt lat="48.12283" lon="7.06534">
        <ele>1150</ele>
        <time>2018-02-13T15:23:51+01:00</time>
      </trkpt>
      <trkpt lat="48.12283" lon="7.06534">
        <ele>1150</ele>
        <time>2018-02-13T15:24:20+01:00</time>
      </trkpt>
      <trkpt lat="48.1228" lon="7.06535">
        <ele>1151</ele>
        <time>2018-02-13T15:24:47+01:00</time>
      </trkpt>
      <trkpt lat="48.12282" lon="7.06539">
        <ele>1151</ele>
        <time>2018-02-13T15:25:16+01:00</time>
      </trkpt>
      <trkpt lat="48.12285" lon="7.0654">
        <ele>1150</ele>
        <time>2018-02-13T15:25:45+01:00</time>
      </trkpt>
      <trkpt lat="48.12283" lon="7.06546">
        <ele>1151</ele>
        <time>2018-02-13T15:26:11+01:00</time>
      </trkpt>
      <trkpt lat="48.12285" lon="7.06554">
        <ele>1151</ele>
        <time>2018-02-13T15:26:18+01:00</time>
      </trkpt>
      <trkpt lat="48.12292" lon="7.06576">
        <ele>1150</ele>
        <time>2018-02-13T15:26:39+01:00</time>
      </trkpt>
      <trkpt lat="48.12299" lon="7.06602">
        <ele>1150</ele>
        <time>2018-02-13T15:27:02+01:00</time>
      </trkpt>
      <trkpt lat="48.12302" lon="7.06628">
        <ele>1151</ele>
        <time>2018-02-13T15:27:23+01:00</time>
      </trkpt>
      <trkpt lat="48.12304" lon="7.06645">
        <ele>1152</ele>
        <time>2018-02-13T15:27:37+01:00</time>
      </trkpt>
      <trkpt lat="48.12308" lon="7.06669">
        <ele>1153</ele>
        <time>2018-02-13T15:27:58+01:00</time>
      </trkpt>
      <trkpt lat="48.12312" lon="7.06699">
        <ele>1154</ele>
        <time>2018-02-13T15:28:20+01:00</time>
      </trkpt>
      <trkpt lat="48.12315" lon="7.0672">
        <ele>1154</ele>
        <time>2018-02-13T15:28:39+01:00</time>
      </trkpt>
      <trkpt lat="48.12323" lon="7.06746">
        <ele>1154</ele>
        <time>2018-02-13T15:29:00+01:00</time>
      </trkpt>
      <trkpt lat="48.12328" lon="7.06771">
        <ele>1155</ele>
        <time>2018-02-13T15:29:19+01:00</time>
      </trkpt>
      <trkpt lat="48.12334" lon="7.06799">
        <ele>1156</ele>
        <time>2018-02-13T15:29:42+01:00</time>
      </trkpt>
      <trkpt lat="48.12338" lon="7.06832">
        <ele>1157</ele>
        <time>2018-02-13T15:30:07+01:00</time>
      </trkpt>
      <trkpt lat="48.1234" lon="7.06855">
        <ele>1158</ele>
        <time>2018-02-13T15:30:27+01:00</time>
      </trkpt>
      <trkpt lat="48.1234" lon="7.06855">
        <ele>1158</ele>
        <time>2018-02-13T15:30:28+01:00</time>
      </trkpt>
      <trkpt lat="48.12346" lon="7.06879">
        <ele>1158</ele>
        <time>2018-02-13T15:30:49+01:00</time>
      </trkpt>
      <trkpt lat="48.12347" lon="7.06901">
        <ele>1159</ele>
        <time>2018-02-13T15:31:08+01:00</time>
      </trkpt>
      <trkpt lat="48.12345" lon="7.06919">
        <ele>1161</ele>
        <time>2018-02-13T15:31:26+01:00</time>
      </trkpt>
      <trkpt lat="48.12343" lon="7.06944">
        <ele>1162</ele>
        <time>2018-02-13T15:31:47+01:00</time>
      </trkpt>
      <trkpt lat="48.12343" lon="7.06968">
        <ele>1162</ele>
        <time>2018-02-13T15:32:07+01:00</time>
      </trkpt>
      <trkpt lat="48.1234" lon="7.06978">
        <ele>1164</ele>
        <time>2018-02-13T15:32:25+01:00</time>
      </trkpt>
      <trkpt lat="48.1234" lon="7.06975">
        <ele>1164</ele>
        <time>2018-02-13T15:32:33+01:00</time>
      </trkpt>
      <trkpt lat="48.12339" lon="7.06963">
        <ele>1164</ele>
        <time>2018-02-13T15:33:02+01:00</time>
      </trkpt>
      <trkpt lat="48.12339" lon="7.06962">
        <ele>1164</ele>
        <time>2018-02-13T15:33:10+01:00</time>
      </trkpt>
      <trkpt lat="48.12339" lon="7.06977">
        <ele>1164</ele>
        <time>2018-02-13T15:33:31+01:00</time>
      </trkpt>
      <trkpt lat="48.1234" lon="7.06975">
        <ele>1164</ele>
        <time>2018-02-13T15:33:52+01:00</time>
      </trkpt>
      <trkpt lat="48.12343" lon="7.06978">
        <ele>1163</ele>
        <time>2018-02-13T15:34:13+01:00</time>
      </trkpt>
      <trkpt lat="48.12347" lon="7.07002">
        <ele>1162</ele>
        <time>2018-02-13T15:34:31+01:00</time>
      </trkpt>
      <trkpt lat="48.12349" lon="7.07034">
        <ele>1163</ele>
        <time>2018-02-13T15:34:53+01:00</time>
      </trkpt>
      <trkpt lat="48.1235" lon="7.07063">
        <ele>1164</ele>
        <time>2018-02-13T15:35:12+01:00</time>
      </trkpt>
      <trkpt lat="48.12352" lon="7.07087">
        <ele>1164</ele>
        <time>2018-02-13T15:35:31+01:00</time>
      </trkpt>
      <trkpt lat="48.12352" lon="7.07092">
        <ele>1164</ele>
        <time>2018-02-13T15:35:34+01:00</time>
      </trkpt>
      <trkpt lat="48.12353" lon="7.07095">
        <ele>1164</ele>
        <time>2018-02-13T15:35:36+01:00</time>
      </trkpt>
      <trkpt lat="48.12353" lon="7.07102">
        <ele>1165</ele>
        <time>2018-02-13T15:35:40+01:00</time>
      </trkpt>
      <trkpt lat="48.12355" lon="7.07112">
        <ele>1165</ele>
        <time>2018-02-13T15:35:46+01:00</time>
      </trkpt>
      <trkpt lat="48.12358" lon="7.07129">
        <ele>1166</ele>
        <time>2018-02-13T15:35:58+01:00</time>
      </trkpt>
      <trkpt lat="48.12359" lon="7.07145">
        <ele>1166</ele>
        <time>2018-02-13T15:36:09+01:00</time>
      </trkpt>
      <trkpt lat="48.12364" lon="7.07173">
        <ele>1167</ele>
        <time>2018-02-13T15:36:28+01:00</time>
      </trkpt>
      <trkpt lat="48.12365" lon="7.07176">
        <ele>1167</ele>
        <time>2018-02-13T15:36:30+01:00</time>
      </trkpt>
      <trkpt lat="48.12365" lon="7.07179">
        <ele>1167</ele>
        <time>2018-02-13T15:36:32+01:00</time>
      </trkpt>
      <trkpt lat="48.12375" lon="7.07212">
        <ele>1167</ele>
        <time>2018-02-13T15:36:54+01:00</time>
      </trkpt>
      <trkpt lat="48.12385" lon="7.07234">
        <ele>1167</ele>
        <time>2018-02-13T15:37:09+01:00</time>
      </trkpt>
      <trkpt lat="48.12396" lon="7.0725">
        <ele>1165</ele>
        <time>2018-02-13T15:37:23+01:00</time>
      </trkpt>
      <trkpt lat="48.12412" lon="7.07262">
        <ele>1163</ele>
        <time>2018-02-13T15:37:43+01:00</time>
      </trkpt>
      <trkpt lat="48.12417" lon="7.07265">
        <ele>1162</ele>
        <time>2018-02-13T15:37:48+01:00</time>
      </trkpt>
      <trkpt lat="48.12418" lon="7.07267">
        <ele>1162</ele>
        <time>2018-02-13T15:37:51+01:00</time>
      </trkpt>
      <trkpt lat="48.12439" lon="7.07278">
        <ele>1162</ele>
        <time>2018-02-13T15:38:12+01:00</time>
      </trkpt>
      <trkpt lat="48.12451" lon="7.07281">
        <ele>1161</ele>
        <time>2018-02-13T15:38:22+01:00</time>
      </trkpt>
      <trkpt lat="48.12478" lon="7.07292">
        <ele>1161</ele>
        <time>2018-02-13T15:38:45+01:00</time>
      </trkpt>
      <trkpt lat="48.12493" lon="7.07299">
        <ele>1160</ele>
        <time>2018-02-13T15:39:03+01:00</time>
      </trkpt>
      <trkpt lat="48.125" lon="7.07302">
        <ele>1160</ele>
        <time>2018-02-13T15:39:08+01:00</time>
      </trkpt>
      <trkpt lat="48.12519" lon="7.0731">
        <ele>1160</ele>
        <time>2018-02-13T15:39:25+01:00</time>
      </trkpt>
      <trkpt lat="48.12525" lon="7.07312">
        <ele>1160</ele>
        <time>2018-02-13T15:39:30+01:00</time>
      </trkpt>
      <trkpt lat="48.12552" lon="7.07319">
        <ele>1159</ele>
        <time>2018-02-13T15:39:51+01:00</time>
      </trkpt>
      <trkpt lat="48.12575" lon="7.07319">
        <ele>1159</ele>
        <time>2018-02-13T15:40:12+01:00</time>
      </trkpt>
      <trkpt lat="48.126" lon="7.07323">
        <ele>1158</ele>
        <time>2018-02-13T15:40:33+01:00</time>
      </trkpt>
      <trkpt lat="48.12605" lon="7.07323">
        <ele>1158</ele>
        <time>2018-02-13T15:40:37+01:00</time>
      </trkpt>
      <trkpt lat="48.12624" lon="7.07321">
        <ele>1157</ele>
        <time>2018-02-13T15:40:55+01:00</time>
      </trkpt>
      <trkpt lat="48.12636" lon="7.07319">
        <ele>1157</ele>
        <time>2018-02-13T15:41:08+01:00</time>
      </trkpt>
      <trkpt lat="48.12637" lon="7.07318">
        <ele>1157</ele>
        <time>2018-02-13T15:41:10+01:00</time>
      </trkpt>
      <trkpt lat="48.12645" lon="7.07319">
        <ele>1156</ele>
        <time>2018-02-13T15:41:17+01:00</time>
      </trkpt>
      <trkpt lat="48.12646" lon="7.07319">
        <ele>1156</ele>
        <time>2018-02-13T15:41:19+01:00</time>
      </trkpt>
      <trkpt lat="48.12657" lon="7.07317">
        <ele>1156</ele>
        <time>2018-02-13T15:41:27+01:00</time>
      </trkpt>
      <trkpt lat="48.12675" lon="7.07315">
        <ele>1155</ele>
        <time>2018-02-13T15:41:45+01:00</time>
      </trkpt>
      <trkpt lat="48.12693" lon="7.0732">
        <ele>1155</ele>
        <time>2018-02-13T15:41:59+01:00</time>
      </trkpt>
      <trkpt lat="48.12708" lon="7.07314">
        <ele>1153</ele>
        <time>2018-02-13T15:42:17+01:00</time>
      </trkpt>
      <trkpt lat="48.12735" lon="7.07309">
        <ele>1152</ele>
        <time>2018-02-13T15:42:38+01:00</time>
      </trkpt>
      <trkpt lat="48.12751" lon="7.073">
        <ele>1151</ele>
        <time>2018-02-13T15:42:54+01:00</time>
      </trkpt>
      <trkpt lat="48.1277" lon="7.07289">
        <ele>1152</ele>
        <time>2018-02-13T15:43:12+01:00</time>
      </trkpt>
      <trkpt lat="48.12788" lon="7.07282">
        <ele>1153</ele>
        <time>2018-02-13T15:43:29+01:00</time>
      </trkpt>
      <trkpt lat="48.128" lon="7.07275">
        <ele>1154</ele>
        <time>2018-02-13T15:43:43+01:00</time>
      </trkpt>
      <trkpt lat="48.12801" lon="7.07274">
        <ele>1154</ele>
        <time>2018-02-13T15:43:45+01:00</time>
      </trkpt>
      <trkpt lat="48.12798" lon="7.07276">
        <ele>1153</ele>
        <time>2018-02-13T15:44:13+01:00</time>
      </trkpt>
      <trkpt lat="48.12798" lon="7.07278">
        <ele>1154</ele>
        <time>2018-02-13T15:44:41+01:00</time>
      </trkpt>
      <trkpt lat="48.12796" lon="7.0728">
        <ele>1154</ele>
        <time>2018-02-13T15:45:12+01:00</time>
      </trkpt>
      <trkpt lat="48.12798" lon="7.0728">
        <ele>1154</ele>
        <time>2018-02-13T15:45:42+01:00</time>
      </trkpt>
      <trkpt lat="48.12798" lon="7.07282">
        <ele>1154</ele>
        <time>2018-02-13T15:46:13+01:00</time>
      </trkpt>
      <trkpt lat="48.12798" lon="7.07281">
        <ele>1154</ele>
        <time>2018-02-13T15:46:41+01:00</time>
      </trkpt>
      <trkpt lat="48.128" lon="7.07281">
        <ele>1154</ele>
        <time>2018-02-13T15:47:10+01:00</time>
      </trkpt>
      <trkpt lat="48.12813" lon="7.07274">
        <ele>1155</ele>
        <time>2018-02-13T15:47:31+01:00</time>
      </trkpt>
      <trkpt lat="48.12829" lon="7.07264">
        <ele>1156</ele>
        <time>2018-02-13T15:47:48+01:00</time>
      </trkpt>
      <trkpt lat="48.12832" lon="7.07261">
        <ele>1156</ele>
        <time>2018-02-13T15:47:51+01:00</time>
      </trkpt>
      <trkpt lat="48.12846" lon="7.07253">
        <ele>1157</ele>
        <time>2018-02-13T15:48:06+01:00</time>
      </trkpt>
      <trkpt lat="48.12862" lon="7.07246">
        <ele>1158</ele>
        <time>2018-02-13T15:48:23+01:00</time>
      </trkpt>
      <trkpt lat="48.12884" lon="7.07238">
        <ele>1159</ele>
        <time>2018-02-13T15:48:44+01:00</time>
      </trkpt>
      <trkpt lat="48.12905" lon="7.07229">
        <ele>1161</ele>
        <time>2018-02-13T15:49:05+01:00</time>
      </trkpt>
      <trkpt lat="48.12926" lon="7.07208">
        <ele>1160</ele>
        <time>2018-02-13T15:49:26+01:00</time>
      </trkpt>
      <trkpt lat="48.12943" lon="7.072">
        <ele>1160</ele>
        <time>2018-02-13T15:49:48+01:00</time>
      </trkpt>
      <trkpt lat="48.12963" lon="7.07195">
        <ele>1160</ele>
        <time>2018-02-13T15:50:10+01:00</time>
      </trkpt>
      <trkpt lat="48.12964" lon="7.07196">
        <ele>1160</ele>
        <time>2018-02-13T15:50:11+01:00</time>
      </trkpt>
      <trkpt lat="48.12972" lon="7.07199">
        <ele>1160</ele>
        <time>2018-02-13T15:50:16+01:00</time>
      </trkpt>
      <trkpt lat="48.12984" lon="7.07203">
        <ele>1161</ele>
        <time>2018-02-13T15:50:27+01:00</time>
      </trkpt>
      <trkpt lat="48.12986" lon="7.07204">
        <ele>1161</ele>
        <time>2018-02-13T15:50:29+01:00</time>
      </trkpt>
      <trkpt lat="48.12989" lon="7.07207">
        <ele>1161</ele>
        <time>2018-02-13T15:50:33+01:00</time>
      </trkpt>
      <trkpt lat="48.13006" lon="7.07227">
        <ele>1162</ele>
        <time>2018-02-13T15:50:53+01:00</time>
      </trkpt>
      <trkpt lat="48.13008" lon="7.07229">
        <ele>1162</ele>
        <time>2018-02-13T15:50:55+01:00</time>
      </trkpt>
      <trkpt lat="48.1301" lon="7.07233">
        <ele>1162</ele>
        <time>2018-02-13T15:50:58+01:00</time>
      </trkpt>
      <trkpt lat="48.13017" lon="7.07246">
        <ele>1162</ele>
        <time>2018-02-13T15:51:08+01:00</time>
      </trkpt>
      <trkpt lat="48.13025" lon="7.07259">
        <ele>1162</ele>
        <time>2018-02-13T15:51:19+01:00</time>
      </trkpt>
      <trkpt lat="48.13025" lon="7.07261">
        <ele>1162</ele>
        <time>2018-02-13T15:51:20+01:00</time>
      </trkpt>
      <trkpt lat="48.13029" lon="7.0727">
        <ele>1162</ele>
        <time>2018-02-13T15:51:28+01:00</time>
      </trkpt>
      <trkpt lat="48.1304" lon="7.07295">
        <ele>1163</ele>
        <time>2018-02-13T15:51:47+01:00</time>
      </trkpt>
      <trkpt lat="48.13051" lon="7.07323">
        <ele>1163</ele>
        <time>2018-02-13T15:52:07+01:00</time>
      </trkpt>
      <trkpt lat="48.13054" lon="7.07332">
        <ele>1164</ele>
        <time>2018-02-13T15:52:15+01:00</time>
      </trkpt>
      <trkpt lat="48.13066" lon="7.07366">
        <ele>1164</ele>
        <time>2018-02-13T15:52:39+01:00</time>
      </trkpt>
      <trkpt lat="48.13074" lon="7.07393">
        <ele>1165</ele>
        <time>2018-02-13T15:52:58+01:00</time>
      </trkpt>
      <trkpt lat="48.13081" lon="7.07416">
        <ele>1166</ele>
        <time>2018-02-13T15:53:14+01:00</time>
      </trkpt>
      <trkpt lat="48.13084" lon="7.07427">
        <ele>1167</ele>
        <time>2018-02-13T15:53:22+01:00</time>
      </trkpt>
      <trkpt lat="48.13092" lon="7.07449">
        <ele>1167</ele>
        <time>2018-02-13T15:53:39+01:00</time>
      </trkpt>
      <trkpt lat="48.13099" lon="7.07479">
        <ele>1167</ele>
        <time>2018-02-13T15:54:01+01:00</time>
      </trkpt>
      <trkpt lat="48.13109" lon="7.07509">
        <ele>1166</ele>
        <time>2018-02-13T15:54:21+01:00</time>
      </trkpt>
      <trkpt lat="48.13115" lon="7.07541">
        <ele>1165</ele>
        <time>2018-02-13T15:54:43+01:00</time>
      </trkpt>
      <trkpt lat="48.13115" lon="7.07552">
        <ele>1165</ele>
        <time>2018-02-13T15:54:49+01:00</time>
      </trkpt>
      <trkpt lat="48.1312" lon="7.07589">
        <ele>1165</ele>
        <time>2018-02-13T15:55:12+01:00</time>
      </trkpt>
      <trkpt lat="48.13129" lon="7.0762">
        <ele>1165</ele>
        <time>2018-02-13T15:55:31+01:00</time>
      </trkpt>
      <trkpt lat="48.13143" lon="7.07658">
        <ele>1165</ele>
        <time>2018-02-13T15:55:58+01:00</time>
      </trkpt>
      <trkpt lat="48.13154" lon="7.07686">
        <ele>1164</ele>
        <time>2018-02-13T15:56:18+01:00</time>
      </trkpt>
      <trkpt lat="48.13165" lon="7.07714">
        <ele>1164</ele>
        <time>2018-02-13T15:56:37+01:00</time>
      </trkpt>
      <trkpt lat="48.13178" lon="7.07743">
        <ele>1163</ele>
        <time>2018-02-13T15:56:59+01:00</time>
      </trkpt>
      <trkpt lat="48.13186" lon="7.07759">
        <ele>1164</ele>
        <time>2018-02-13T15:57:12+01:00</time>
      </trkpt>
      <trkpt lat="48.132" lon="7.07783">
        <ele>1165</ele>
        <time>2018-02-13T15:57:33+01:00</time>
      </trkpt>
      <trkpt lat="48.13222" lon="7.07809">
        <ele>1164</ele>
        <time>2018-02-13T15:57:58+01:00</time>
      </trkpt>
      <trkpt lat="48.13222" lon="7.0781">
        <ele>1164</ele>
        <time>2018-02-13T15:57:59+01:00</time>
      </trkpt>
      <trkpt lat="48.1324" lon="7.07836">
        <ele>1164</ele>
        <time>2018-02-13T15:58:21+01:00</time>
      </trkpt>
      <trkpt lat="48.13242" lon="7.07841">
        <ele>1165</ele>
        <time>2018-02-13T15:58:26+01:00</time>
      </trkpt>
      <trkpt lat="48.13261" lon="7.07862">
        <ele>1165</ele>
        <time>2018-02-13T15:58:45+01:00</time>
      </trkpt>
      <trkpt lat="48.13281" lon="7.07882">
        <ele>1164</ele>
        <time>2018-02-13T15:59:07+01:00</time>
      </trkpt>
      <trkpt lat="48.13302" lon="7.07903">
        <ele>1164</ele>
        <time>2018-02-13T15:59:29+01:00</time>
      </trkpt>
      <trkpt lat="48.13321" lon="7.07926">
        <ele>1164</ele>
        <time>2018-02-13T15:59:53+01:00</time>
      </trkpt>
      <trkpt lat="48.13345" lon="7.07948">
        <ele>1164</ele>
        <time>2018-02-13T16:00:14+01:00</time>
      </trkpt>
      <trkpt lat="48.13355" lon="7.0796">
        <ele>1163</ele>
        <time>2018-02-13T16:00:28+01:00</time>
      </trkpt>
      <trkpt lat="48.13373" lon="7.07976">
        <ele>1162</ele>
        <time>2018-02-13T16:00:48+01:00</time>
      </trkpt>
      <trkpt lat="48.13375" lon="7.07979">
        <ele>1162</ele>
        <time>2018-02-13T16:00:51+01:00</time>
      </trkpt>
      <trkpt lat="48.13388" lon="7.07992">
        <ele>1162</ele>
        <time>2018-02-13T16:01:09+01:00</time>
      </trkpt>
      <trkpt lat="48.13391" lon="7.07993">
        <ele>1162</ele>
        <time>2018-02-13T16:01:15+01:00</time>
      </trkpt>
      <trkpt lat="48.13391" lon="7.07995">
        <ele>1162</ele>
        <time>2018-02-13T16:01:18+01:00</time>
      </trkpt>
      <trkpt lat="48.13391" lon="7.07998">
        <ele>1162</ele>
        <time>2018-02-13T16:01:24+01:00</time>
      </trkpt>
      <trkpt lat="48.13404" lon="7.08006">
        <ele>1161</ele>
        <time>2018-02-13T16:01:43+01:00</time>
      </trkpt>
      <trkpt lat="48.13406" lon="7.08007">
        <ele>1161</ele>
        <time>2018-02-13T16:02:09+01:00</time>
      </trkpt>
      <trkpt lat="48.13399" lon="7.08005">
        <ele>1162</ele>
        <time>2018-02-13T16:02:33+01:00</time>
      </trkpt>
      <trkpt lat="48.13402" lon="7.08002">
        <ele>1161</ele>
        <time>2018-02-13T16:02:54+01:00</time>
      </trkpt>
      <trkpt lat="48.13403" lon="7.08">
        <ele>1161</ele>
        <time>2018-02-13T16:03:24+01:00</time>
      </trkpt>
      <trkpt lat="48.13402" lon="7.08002">
        <ele>1161</ele>
        <time>2018-02-13T16:03:28+01:00</time>
      </trkpt>
      <trkpt lat="48.134" lon="7.08005">
        <ele>1162</ele>
        <time>2018-02-13T16:03:38+01:00</time>
      </trkpt>
      <trkpt lat="48.13401" lon="7.08004">
        <ele>1162</ele>
        <time>2018-02-13T16:04:04+01:00</time>
      </trkpt>
      <trkpt lat="48.134" lon="7.0801">
        <ele>1162</ele>
        <time>2018-02-13T16:04:25+01:00</time>
      </trkpt>
      <trkpt lat="48.13402" lon="7.08011">
        <ele>1162</ele>
        <time>2018-02-13T16:04:52+01:00</time>
      </trkpt>
      <trkpt lat="48.13418" lon="7.0802">
        <ele>1161</ele>
        <time>2018-02-13T16:05:11+01:00</time>
      </trkpt>
      <trkpt lat="48.13439" lon="7.08037">
        <ele>1161</ele>
        <time>2018-02-13T16:05:33+01:00</time>
      </trkpt>
      <trkpt lat="48.13453" lon="7.08051">
        <ele>1162</ele>
        <time>2018-02-13T16:05:48+01:00</time>
      </trkpt>
      <trkpt lat="48.13465" lon="7.08062">
        <ele>1162</ele>
        <time>2018-02-13T16:06:02+01:00</time>
      </trkpt>
      <trkpt lat="48.13479" lon="7.08075">
        <ele>1163</ele>
        <time>2018-02-13T16:06:18+01:00</time>
      </trkpt>
      <trkpt lat="48.13498" lon="7.081">
        <ele>1164</ele>
        <time>2018-02-13T16:06:41+01:00</time>
      </trkpt>
      <trkpt lat="48.13512" lon="7.08131">
        <ele>1166</ele>
        <time>2018-02-13T16:07:05+01:00</time>
      </trkpt>
      <trkpt lat="48.13525" lon="7.08152">
        <ele>1166</ele>
        <time>2018-02-13T16:07:24+01:00</time>
      </trkpt>
      <trkpt lat="48.1353" lon="7.08158">
        <ele>1166</ele>
        <time>2018-02-13T16:07:29+01:00</time>
      </trkpt>
      <trkpt lat="48.13544" lon="7.08178">
        <ele>1166</ele>
        <time>2018-02-13T16:07:45+01:00</time>
      </trkpt>
      <trkpt lat="48.13556" lon="7.08199">
        <ele>1165</ele>
        <time>2018-02-13T16:08:04+01:00</time>
      </trkpt>
      <trkpt lat="48.13565" lon="7.08218">
        <ele>1164</ele>
        <time>2018-02-13T16:08:19+01:00</time>
      </trkpt>
      <trkpt lat="48.13579" lon="7.08241">
        <ele>1162</ele>
        <time>2018-02-13T16:08:34+01:00</time>
      </trkpt>
      <trkpt lat="48.13581" lon="7.08242">
        <ele>1162</ele>
        <time>2018-02-13T16:08:35+01:00</time>
      </trkpt>
      <trkpt lat="48.13585" lon="7.08246">
        <ele>1162</ele>
        <time>2018-02-13T16:08:38+01:00</time>
      </trkpt>
      <trkpt lat="48.13598" lon="7.08274">
        <ele>1161</ele>
        <time>2018-02-13T16:08:59+01:00</time>
      </trkpt>
      <trkpt lat="48.13602" lon="7.08285">
        <ele>1161</ele>
        <time>2018-02-13T16:09:07+01:00</time>
      </trkpt>
      <trkpt lat="48.13604" lon="7.08306">
        <ele>1161</ele>
        <time>2018-02-13T16:09:27+01:00</time>
      </trkpt>
      <trkpt lat="48.136" lon="7.08301">
        <ele>1162</ele>
        <time>2018-02-13T16:09:57+01:00</time>
      </trkpt>
      <trkpt lat="48.13598" lon="7.08295">
        <ele>1162</ele>
        <time>2018-02-13T16:10:22+01:00</time>
      </trkpt>
      <trkpt lat="48.13598" lon="7.08296">
        <ele>1162</ele>
        <time>2018-02-13T16:10:44+01:00</time>
      </trkpt>
      <trkpt lat="48.13601" lon="7.08291">
        <ele>1161</ele>
        <time>2018-02-13T16:11:14+01:00</time>
      </trkpt>
      <trkpt lat="48.13601" lon="7.08294">
        <ele>1161</ele>
        <time>2018-02-13T16:11:37+01:00</time>
      </trkpt>
      <trkpt lat="48.13603" lon="7.08296">
        <ele>1161</ele>
        <time>2018-02-13T16:12:08+01:00</time>
      </trkpt>
      <trkpt lat="48.13602" lon="7.08295">
        <ele>1161</ele>
        <time>2018-02-13T16:12:37+01:00</time>
      </trkpt>
      <trkpt lat="48.13604" lon="7.08292">
        <ele>1161</ele>
        <time>2018-02-13T16:13:04+01:00</time>
      </trkpt>
      <trkpt lat="48.13608" lon="7.083">
        <ele>1160</ele>
        <time>2018-02-13T16:13:31+01:00</time>
      </trkpt>
      <trkpt lat="48.13618" lon="7.08326">
        <ele>1159</ele>
        <time>2018-02-13T16:13:50+01:00</time>
      </trkpt>
      <trkpt lat="48.13621" lon="7.08343">
        <ele>1159</ele>
        <time>2018-02-13T16:14:02+01:00</time>
      </trkpt>
      <trkpt lat="48.1363" lon="7.08365">
        <ele>1157</ele>
        <time>2018-02-13T16:14:24+01:00</time>
      </trkpt>
      <trkpt lat="48.13636" lon="7.08387">
        <ele>1157</ele>
        <time>2018-02-13T16:14:44+01:00</time>
      </trkpt>
      <trkpt lat="48.13637" lon="7.08413">
        <ele>1157</ele>
        <time>2018-02-13T16:15:02+01:00</time>
      </trkpt>
      <trkpt lat="48.1364" lon="7.08449">
        <ele>1157</ele>
        <time>2018-02-13T16:15:24+01:00</time>
      </trkpt>
      <trkpt lat="48.13641" lon="7.08454">
        <ele>1156</ele>
        <time>2018-02-13T16:15:27+01:00</time>
      </trkpt>
      <trkpt lat="48.13645" lon="7.08482">
        <ele>1156</ele>
        <time>2018-02-13T16:15:43+01:00</time>
      </trkpt>
      <trkpt lat="48.13646" lon="7.08489">
        <ele>1156</ele>
        <time>2018-02-13T16:15:47+01:00</time>
      </trkpt>
      <trkpt lat="48.13656" lon="7.08519">
        <ele>1155</ele>
        <time>2018-02-13T16:16:03+01:00</time>
      </trkpt>
      <trkpt lat="48.13656" lon="7.0854">
        <ele>1154</ele>
        <time>2018-02-13T16:16:17+01:00</time>
      </trkpt>
      <trkpt lat="48.13659" lon="7.08555">
        <ele>1154</ele>
        <time>2018-02-13T16:16:26+01:00</time>
      </trkpt>
      <trkpt lat="48.13662" lon="7.08563">
        <ele>1154</ele>
        <time>2018-02-13T16:16:31+01:00</time>
      </trkpt>
      <trkpt lat="48.13664" lon="7.08595">
        <ele>1153</ele>
        <time>2018-02-13T16:16:49+01:00</time>
      </trkpt>
      <trkpt lat="48.13666" lon="7.08613">
        <ele>1152</ele>
        <time>2018-02-13T16:17:04+01:00</time>
      </trkpt>
      <trkpt lat="48.13668" lon="7.08636">
        <ele>1151</ele>
        <time>2018-02-13T16:17:18+01:00</time>
      </trkpt>
      <trkpt lat="48.13671" lon="7.08645">
        <ele>1150</ele>
        <time>2018-02-13T16:17:24+01:00</time>
      </trkpt>
      <trkpt lat="48.13671" lon="7.0865">
        <ele>1149</ele>
        <time>2018-02-13T16:17:27+01:00</time>
      </trkpt>
      <trkpt lat="48.13674" lon="7.08659">
        <ele>1148</ele>
        <time>2018-02-13T16:17:33+01:00</time>
      </trkpt>
      <trkpt lat="48.13673" lon="7.08672">
        <ele>1148</ele>
        <time>2018-02-13T16:17:41+01:00</time>
      </trkpt>
      <trkpt lat="48.13671" lon="7.08675">
        <ele>1149</ele>
        <time>2018-02-13T16:17:43+01:00</time>
      </trkpt>
      <trkpt lat="48.13665" lon="7.08695">
        <ele>1149</ele>
        <time>2018-02-13T16:17:56+01:00</time>
      </trkpt>
      <trkpt lat="48.1366" lon="7.08727">
        <ele>1149</ele>
        <time>2018-02-13T16:18:15+01:00</time>
      </trkpt>
      <trkpt lat="48.13652" lon="7.0876">
        <ele>1149</ele>
        <time>2018-02-13T16:18:35+01:00</time>
      </trkpt>
      <trkpt lat="48.13646" lon="7.08787">
        <ele>1149</ele>
        <time>2018-02-13T16:18:52+01:00</time>
      </trkpt>
      <trkpt lat="48.13645" lon="7.08796">
        <ele>1149</ele>
        <time>2018-02-13T16:18:57+01:00</time>
      </trkpt>
      <trkpt lat="48.13641" lon="7.08815">
        <ele>1148</ele>
        <time>2018-02-13T16:19:05+01:00</time>
      </trkpt>
      <trkpt lat="48.13643" lon="7.08822">
        <ele>1148</ele>
        <time>2018-02-13T16:19:09+01:00</time>
      </trkpt>
      <trkpt lat="48.13654" lon="7.08839">
        <ele>1147</ele>
        <time>2018-02-13T16:19:21+01:00</time>
      </trkpt>
      <trkpt lat="48.13653" lon="7.08844">
        <ele>1147</ele>
        <time>2018-02-13T16:19:25+01:00</time>
      </trkpt>
      <trkpt lat="48.13653" lon="7.08857">
        <ele>1147</ele>
        <time>2018-02-13T16:19:31+01:00</time>
      </trkpt>
      <trkpt lat="48.13657" lon="7.08877">
        <ele>1147</ele>
        <time>2018-02-13T16:19:45+01:00</time>
      </trkpt>
      <trkpt lat="48.13662" lon="7.08882">
        <ele>1147</ele>
        <time>2018-02-13T16:19:52+01:00</time>
      </trkpt>
      <trkpt lat="48.13675" lon="7.0888">
        <ele>1147</ele>
        <time>2018-02-13T16:20:08+01:00</time>
      </trkpt>
      <trkpt lat="48.13673" lon="7.08879">
        <ele>1147</ele>
        <time>2018-02-13T16:20:30+01:00</time>
      </trkpt>
      <trkpt lat="48.13673" lon="7.08879">
        <ele>1147</ele>
        <time>2018-02-13T16:20:32+01:00</time>
      </trkpt>
      <trkpt lat="48.13673" lon="7.08879">
        <ele>1147</ele>
        <time>2018-02-13T16:20:33+01:00</time>
      </trkpt>
      <trkpt lat="48.13673" lon="7.08879">
        <ele>1147</ele>
        <time>2018-02-13T16:20:34+01:00</time>
      </trkpt>
      <trkpt lat="48.13673" lon="7.08879">
        <ele>1147</ele>
        <time>2018-02-13T16:20:36+01:00</time>
      </trkpt>
      <trkpt lat="48.13672" lon="7.08877">
        <ele>1147</ele>
        <time>2018-02-13T16:20:54+01:00</time>
      </trkpt>
      <trkpt lat="48.13671" lon="7.08878">
        <ele>1147</ele>
        <time>2018-02-13T16:21:00+01:00</time>
      </trkpt>
      <trkpt lat="48.13672" lon="7.08877">
        <ele>1147</ele>
        <time>2018-02-13T16:21:01+01:00</time>
      </trkpt>
      <trkpt lat="48.13672" lon="7.08876">
        <ele>1147</ele>
        <time>2018-02-13T16:21:03+01:00</time>
      </trkpt>
      <trkpt lat="48.13671" lon="7.08877">
        <ele>1147</ele>
        <time>2018-02-13T16:21:09+01:00</time>
      </trkpt>
      <trkpt lat="48.13672" lon="7.08876">
        <ele>1147</ele>
        <time>2018-02-13T16:21:10+01:00</time>
      </trkpt>
      <trkpt lat="48.13672" lon="7.08876">
        <ele>1147</ele>
        <time>2018-02-13T16:21:13+01:00</time>
      </trkpt>
      <trkpt lat="48.13672" lon="7.08876">
        <ele>1147</ele>
        <time>2018-02-13T16:21:15+01:00</time>
      </trkpt>
      <trkpt lat="48.13672" lon="7.08877">
        <ele>1147</ele>
        <time>2018-02-13T16:21:16+01:00</time>
      </trkpt>
      <trkpt lat="48.13671" lon="7.08876">
        <ele>1147</ele>
        <time>2018-02-13T16:21:25+01:00</time>
      </trkpt>
      <trkpt lat="48.1367" lon="7.08875">
        <ele>1147</ele>
        <time>2018-02-13T16:21:26+01:00</time>
      </trkpt>
      <trkpt lat="48.1367" lon="7.08874">
        <ele>1147</ele>
        <time>2018-02-13T16:21:28+01:00</time>
      </trkpt>
      <trkpt lat="48.13669" lon="7.08874">
        <ele>1147</ele>
        <time>2018-02-13T16:21:29+01:00</time>
      </trkpt>
      <trkpt lat="48.13669" lon="7.08874">
        <ele>1147</ele>
        <time>2018-02-13T16:21:30+01:00</time>
      </trkpt>
      <trkpt lat="48.13669" lon="7.08875">
        <ele>1147</ele>
        <time>2018-02-13T16:21:31+01:00</time>
      </trkpt>
      <trkpt lat="48.1367" lon="7.0888">
        <ele>1147</ele>
        <time>2018-02-13T16:21:39+01:00</time>
      </trkpt>
      <trkpt lat="48.1367" lon="7.08881">
        <ele>1147</ele>
        <time>2018-02-13T16:21:40+01:00</time>
      </trkpt>
      <trkpt lat="48.13671" lon="7.08883">
        <ele>1147</ele>
        <time>2018-02-13T16:21:47+01:00</time>
      </trkpt>
      <trkpt lat="48.13671" lon="7.08885">
        <ele>1147</ele>
        <time>2018-02-13T16:21:52+01:00</time>
      </trkpt>
      <trkpt lat="48.13671" lon="7.08885">
        <ele>1147</ele>
        <time>2018-02-13T16:21:54+01:00</time>
      </trkpt>
      <trkpt lat="48.13671" lon="7.08885">
        <ele>1147</ele>
        <time>2018-02-13T16:21:55+01:00</time>
      </trkpt>
      <trkpt lat="48.1367" lon="7.08886">
        <ele>1148</ele>
        <time>2018-02-13T16:22:01+01:00</time>
      </trkpt>
      <trkpt lat="48.1367" lon="7.08886">
        <ele>1148</ele>
        <time>2018-02-13T16:22:02+01:00</time>
      </trkpt>
      <trkpt lat="48.13671" lon="7.08884">
        <ele>1147</ele>
        <time>2018-02-13T16:22:11+01:00</time>
      </trkpt>
      <trkpt lat="48.13671" lon="7.08883">
        <ele>1147</ele>
        <time>2018-02-13T16:22:12+01:00</time>
      </trkpt>
      <trkpt lat="48.1367" lon="7.08882">
        <ele>1147</ele>
        <time>2018-02-13T16:22:13+01:00</time>
      </trkpt>
      <trkpt lat="48.13671" lon="7.08884">
        <ele>1147</ele>
        <time>2018-02-13T16:22:15+01:00</time>
      </trkpt>
      <trkpt lat="48.1367" lon="7.08884">
        <ele>1147</ele>
        <time>2018-02-13T16:22:16+01:00</time>
      </trkpt>
      <trkpt lat="48.1367" lon="7.08885">
        <ele>1148</ele>
        <time>2018-02-13T16:22:17+01:00</time>
      </trkpt>
      <trkpt lat="48.1367" lon="7.08884">
        <ele>1147</ele>
        <time>2018-02-13T16:22:18+01:00</time>
      </trkpt>
      <trkpt lat="48.13671" lon="7.08885">
        <ele>1147</ele>
        <time>2018-02-13T16:22:20+01:00</time>
      </trkpt>
      <trkpt lat="48.13671" lon="7.08885">
        <ele>1147</ele>
        <time>2018-02-13T16:22:21+01:00</time>
      </trkpt>
      <trkpt lat="48.13671" lon="7.08885">
        <ele>1147</ele>
        <time>2018-02-13T16:22:22+01:00</time>
      </trkpt>
      <trkpt lat="48.13671" lon="7.08886">
        <ele>1147</ele>
        <time>2018-02-13T16:22:23+01:00</time>
      </trkpt>
      <trkpt lat="48.13672" lon="7.08886">
        <ele>1147</ele>
        <time>2018-02-13T16:22:24+01:00</time>
      </trkpt>
      <trkpt lat="48.1367" lon="7.08888">
        <ele>1148</ele>
        <time>2018-02-13T16:22:49+01:00</time>
      </trkpt>
      <trkpt lat="48.1367" lon="7.08884">
        <ele>1148</ele>
        <time>2018-02-13T16:23:11+01:00</time>
      </trkpt>
    </trkseg>
  </trk>
</gpx>